Data for 07/30/2009

Time Sea-Level Adjusted Pressure Absolute Pressure Temperature Relative Humidity Dew Point Precipitation   
(mb) (inHg) (mb) (inHg) (C) (F) (%) (C) (F) (mm) (in)
00:01 1024 30.24 853 25.19 11.7 53 63 4.9 40.8 12.06 0.475
00:02 1024 30.24 853 25.19 11.7 53 63 4.8 40.7 12.04 0.474
00:03 1024 30.24 853 25.19 11.6 52.9 63 4.9 40.8 12.01 0.473
00:04 1024 30.24 853 25.19 11.6 52.9 63 4.9 40.8 11.95 0.47
00:05 1024 30.24 853 25.19 11.6 52.9 63 4.9 40.8 11.95 0.47
00:06 1024 30.24 853 25.19 11.6 52.8 63 4.9 40.7 11.94 0.47
00:07 1024 30.24 853 25.19 11.5 52.8 63 4.8 40.7 11.91 0.469
00:08 1024 30.24 853 25.19 11.6 52.8 63 4.8 40.6 11.92 0.469
00:09 1024 30.24 853 25.19 11.6 52.9 63 4.8 40.7 11.98 0.472
00:10 1024 30.24 853 25.19 11.6 52.8 63 4.7 40.5 11.92 0.469
00:11 1024 30.24 853 25.19 11.6 52.9 63 4.9 40.8 11.94 0.47
00:12 1024 30.24 853 25.19 11.6 52.8 63 4.9 40.7 11.92 0.469
00:13 1024 30.24 853 25.19 11.6 52.8 63 4.9 40.8 11.89 0.468
00:14 1024 30.24 853 25.19 11.5 52.8 63 4.7 40.4 11.89 0.468
00:15 1024 30.24 853 25.19 11.6 52.8 63 4.7 40.5 11.93 0.47
00:16 1024 30.24 853 25.19 11.6 52.8 63 4.8 40.6 11.9 0.469
00:17 1024 30.24 853 25.19 11.5 52.7 63 4.8 40.7 11.91 0.469
00:18 1024 30.24 853 25.19 11.5 52.8 63 4.8 40.7 11.85 0.467
00:19 1024 30.24 853 25.19 11.5 52.7 62 4.6 40.3 11.9 0.469
00:20 1024 30.24 853 25.19 11.5 52.8 63 4.8 40.6 11.91 0.469
00:21 1024 30.24 853 25.19 11.5 52.7 62 4.6 40.3 11.86 0.467
00:22 1024 30.24 853 25.19 11.6 52.9 62 4.6 40.4 11.98 0.472
00:23 1024 30.24 853 25.19 11.6 52.9 62 4.6 40.4 11.99 0.472
00:24 1024 30.24 853 25.19 11.6 52.9 63 4.8 40.7 11.95 0.47
00:25 1024 30.24 853 25.19 11.5 52.8 62 4.7 40.4 11.9 0.469
00:26 1024 30.24 853 25.19 11.5 52.7 63 4.7 40.5 11.9 0.469
00:27 1024 30.24 853 25.19 11.5 52.6 63 4.7 40.4 11.79 0.464
00:28 1024 30.24 853 25.19 11.4 52.5 63 4.6 40.3 11.82 0.465
00:29 1024 30.24 853 25.19 11.4 52.6 62 4.4 39.9 11.8 0.465
00:30 1024 30.24 853 25.19 11.6 52.8 62 4.5 40.1 11.95 0.47
00:31 1024 30.24 853 25.19 11.6 53 61 4.5 40.1 11.99 0.472
00:32 1024 30.24 853 25.19 11.6 52.9 61 4.4 39.8 11.99 0.472
00:33 1024 30.24 853 25.19 11.7 53 60 4.3 39.8 12 0.472
00:34 1024 30.24 853 25.19 11.8 53.2 61 4.5 40 12.11 0.477
00:35 1024 30.24 853 25.19 11.7 53.1 60 4.3 39.8 12.09 0.476
00:36 1024 30.24 853 25.19 11.7 53.1 60 4.4 39.9 12.06 0.475
00:37 1024 30.24 853 25.19 11.7 53 61 4.4 39.9 12.07 0.475
00:38 1024 30.24 853 25.19 11.7 53 61 4.4 40 12.03 0.474
00:39 1024 30.24 853 25.19 11.6 52.8 61 4.3 39.7 11.96 0.471
00:40 1024 30.24 853 25.19 11.6 52.9 60 4.2 39.6 12.03 0.474
00:41 1024 30.24 853 25.19 11.7 53.1 61 4.4 39.9 12.11 0.477
00:42 1024 30.24 853 25.19 11.7 53.1 61 4.4 39.9 12.07 0.475
00:43 1024 30.24 853 25.19 11.7 53.1 60 4.4 39.8 12.05 0.474
00:44 1024 30.24 853 25.19 11.7 53 60 4.3 39.7 12.02 0.473
00:45 1024 30.24 853 25.19 11.7 53.1 60 4.3 39.7 12.12 0.477
00:46 1024 30.24 853 25.19 11.8 53.2 60 4.3 39.7 12.1 0.476
00:47 1024 30.24 853 25.19 11.7 53.1 60 4.2 39.6 12.12 0.477
00:48 1024 30.24 853 25.19 11.8 53.2 60 4.3 39.7 12.18 0.48
00:49 1024 30.24 853 25.19 11.8 53.2 60 4.4 39.9 12.11 0.477
00:50 1024 30.24 853 25.19 11.7 53 60 4.2 39.5 12.1 0.476
00:51 1024 30.24 853 25.19 11.7 53.1 60 4.3 39.8 12.05 0.474
00:52 1024 30.24 853 25.19 11.6 52.9 61 4.3 39.8 11.99 0.472
00:53 1024 30.24 853 25.19 11.6 52.9 61 4.4 40 11.92 0.469
00:54 1024 30.24 853 25.19 11.5 52.8 61 4.3 39.7 11.88 0.468
00:55 1024 30.24 853 25.19 11.5 52.7 61 4.3 39.8 11.85 0.467
00:56 1024 30.24 853 25.19 11.5 52.6 62 4.4 39.9 11.84 0.466
00:57 1024 30.24 853 25.19 11.4 52.5 61 4.3 39.7 11.73 0.462
00:58 1024 30.24 853 25.19 11.3 52.3 63 4.5 40 11.69 0.46
00:59 1024 30.24 853 25.19 11.1 51.9 64 4.5 40.1 11.46 0.451
01:00 1024 30.24 853 25.19 10.9 51.7 64 4.5 40 11.31 0.445
01:01 1024 30.24 853 25.19 10.9 51.5 63 4.1 39.4 11.23 0.442
01:02 1024 30.24 853 25.19 10.9 51.7 63 4.1 39.4 11.35 0.447
01:03 1024 30.24 853 25.19 11 51.9 63 4.2 39.6 11.36 0.447
01:04 1024 30.24 853 25.19 11 51.8 63 4.2 39.5 11.36 0.447
01:05 1024 30.24 853 25.19 11 51.8 62 4.2 39.5 11.37 0.448
01:06 1024 30.24 853 25.19 11 51.8 63 4.3 39.8 11.39 0.448
01:07 1024 30.24 854 25.22 11 51.8 63 4.2 39.6 11.35 0.447
01:08 1024 30.24 854 25.22 10.9 51.7 63 4.3 39.7 11.27 0.444
01:09 1024 30.24 854 25.22 10.8 51.4 64 4.4 39.9 11.18 0.44
01:10 1024 30.24 854 25.22 10.7 51.3 64 4.2 39.6 11.08 0.436
01:11 1024 30.24 854 25.22 10.6 51.1 65 4.4 39.9 11 0.433
01:12 1024 30.24 854 25.22 10.6 51 65 4.4 39.9 10.91 0.43
01:13 1024 30.24 854 25.22 10.4 50.8 66 4.4 39.9 10.86 0.428
01:14 1024 30.24 854 25.22 10.4 50.8 66 4.3 39.7 10.8 0.425
01:15 1024 30.24 853 25.19 10.4 50.8 65 4.2 39.6 10.77 0.424
01:16 1024 30.24 853 25.19 10.3 50.6 66 4.2 39.6 10.73 0.422
01:17 1024 30.24 853 25.19 10.3 50.6 66 4.2 39.6 10.71 0.422
01:18 1024 30.24 853 25.19 10.3 50.6 65 4.1 39.3 10.73 0.422
01:19 1024 30.24 853 25.19 10.4 50.7 65 4.1 39.4 10.73 0.422
01:20 1024 30.24 853 25.19 10.4 50.8 65 4.1 39.4 10.74 0.423
01:21 1024 30.24 853 25.19 10.4 50.8 65 4.1 39.4 10.79 0.425
01:22 1024 30.24 853 25.19 10.5 50.9 64 4.1 39.4 10.81 0.426
01:23 1024 30.24 853 25.19 10.5 50.8 65 4.2 39.6 10.8 0.425
01:24 1024 30.24 853 25.19 10.4 50.7 65 4.2 39.6 10.71 0.422
01:25 1024 30.24 853 25.19 10.3 50.6 65 4.1 39.5 10.67 0.42
01:26 1024 30.24 853 25.19 10.3 50.5 66 4.1 39.4 10.64 0.419
01:27 1024 30.24 854 25.22 10.3 50.5 66 4.2 39.5 10.59 0.417
01:28 1024 30.24 854 25.22 10.2 50.4 67 4.3 39.8 10.56 0.416
01:29 1024 30.24 853 25.19 10.1 50.1 66 4.1 39.4 10.45 0.411
01:30 1024 30.24 853 25.19 10 50.1 67 4.2 39.6 10.41 0.41
01:31 1024 30.24 853 25.19 10 49.9 67 4.2 39.6 10.32 0.406
01:32 1024 30.24 853 25.19 9.9 49.8 67 4.1 39.5 10.27 0.404
01:33 1024 30.24 853 25.19 9.8 49.7 68 4.2 39.5 10.2 0.402
01:34 1024 30.24 853 25.19 9.8 49.6 68 4.1 39.4 10.09 0.397
01:35 1024 30.24 853 25.19 9.7 49.4 67 4 39.2 10.07 0.396
01:36 1024 30.24 853 25.19 9.8 49.6 67 3.9 39.1 10.16 0.4
01:37 1024 30.24 853 25.19 9.8 49.7 67 4 39.2 10.19 0.401
01:38 1024 30.24 853 25.19 9.8 49.7 67 4 39.2 10.17 0.4
01:39 1024 30.24 853 25.19 9.9 49.8 67 4.1 39.5 10.2 0.402
01:40 1024 30.24 853 25.19 9.9 49.7 67 4.1 39.3 10.19 0.401
01:41 1024 30.24 853 25.19 9.8 49.7 67 4.1 39.4 10.16 0.4
01:42 1024 30.24 853 25.19 9.8 49.7 67 4.1 39.4 10.16 0.4
01:43 1024 30.24 853 25.19 9.8 49.6 67 4 39.3 10.14 0.399
01:44 1024 30.24 853 25.19 9.8 49.6 67 4 39.3 10.12 0.398
01:45 1024 30.24 853 25.19 9.8 49.6 68 4.1 39.4 10.12 0.398
01:46 1024 30.24 853 25.19 9.7 49.5 68 4 39.3 10.07 0.396
01:47 1024 30.24 853 25.19 9.7 49.4 68 4 39.2 10.05 0.396
01:48 1024 30.24 853 25.19 9.7 49.4 68 4 39.2 9.96 0.392
01:49 1024 30.24 853 25.19 9.6 49.3 68 4 39.2 9.97 0.393
01:50 1024 30.24 853 25.19 9.6 49.2 68 4 39.2 9.92 0.391
01:51 1024 30.24 853 25.19 9.5 49.1 69 4.1 39.3 9.85 0.388
01:52 1024 30.24 853 25.19 9.5 49 68 3.9 39.1 9.8 0.386
01:53 1024 30.24 853 25.19 9.5 49 69 4 39.2 9.82 0.387
01:54 1024 30.24 853 25.19 9.4 48.9 69 4 39.2 9.76 0.384
01:55 1024 30.24 853 25.19 9.3 48.8 69 4 39.2 9.71 0.382
01:56 1024 30.24 853 25.19 9.3 48.7 69 4 39.2 9.64 0.38
01:57 1024 30.24 853 25.19 9.2 48.6 70 4.1 39.4 9.52 0.375
01:58 1024 30.24 853 25.19 9.1 48.4 71 4.1 39.4 9.43 0.371
01:59 1024 30.24 853 25.19 9 48.1 71 4 39.2 9.32 0.367
02:00 1024 30.24 853 25.19 8.9 48 71 3.9 39.1 9.26 0.365
02:01 1024 30.24 853 25.19 8.9 47.9 71 4 39.1 9.21 0.363
02:02 1024 30.24 853 25.19 8.8 47.9 72 4 39.1 9.16 0.361
02:03 1024 30.24 853 25.19 8.7 47.7 72 4 39.1 9.08 0.357
02:04 1024 30.24 853 25.19 8.7 47.6 72 4 39.2 9.04 0.356
02:05 1024 30.24 853 25.19 8.7 47.6 72 4 39.1 8.98 0.354
02:06 1024 30.24 853 25.19 8.6 47.5 73 4 39.2 8.98 0.354
02:07 1024 30.24 853 25.19 8.6 47.4 73 4 39.1 8.93 0.352
02:08 1024 30.24 853 25.19 8.5 47.3 73 3.9 39 8.9 0.35
02:09 1024 30.24 853 25.19 8.5 47.3 73 3.9 39 8.89 0.35
02:10 1024 30.24 853 25.19 8.5 47.3 72 3.9 39 8.85 0.348
02:11 1024 30.24 853 25.19 8.5 47.3 73 3.9 39 8.84 0.348
02:12 1024 30.24 853 25.19 8.5 47.3 73 3.9 39 8.82 0.347
02:13 1024 30.24 853 25.19 8.5 47.2 73 3.9 39.1 8.8 0.346
02:14 1024 30.24 853 25.19 8.4 47.1 73 3.9 39.1 8.78 0.346
02:15 1024 30.24 853 25.19 8.3 46.9 74 4 39.2 8.64 0.34
02:16 1024 30.24 853 25.19 8.1 46.6 75 4 39.2 8.48 0.334
02:17 1024 30.24 853 25.19 8 46.3 76 4 39.1 8.38 0.33
02:18 1024 30.24 853 25.19 7.9 46.2 77 4 39.2 8.25 0.325
02:19 1024 30.24 853 25.19 7.8 46.1 76 3.9 39.1 8.25 0.325
02:20 1024 30.24 853 25.19 7.9 46.2 76 3.9 39 8.29 0.326
02:21 1024 30.24 853 25.19 7.9 46.2 75 3.8 38.9 8.3 0.327
02:22 1024 30.24 853 25.19 7.9 46.3 75 3.9 39 8.27 0.326
02:23 1024 30.24 853 25.19 7.9 46.1 76 3.8 38.9 8.23 0.324
02:24 1024 30.24 853 25.19 7.8 46.1 76 3.9 39 8.17 0.322
02:25 1024 30.24 853 25.19 7.8 46 76 3.8 38.9 8.18 0.322
02:26 1024 30.24 853 25.19 7.8 46 76 3.9 39 8.12 0.32
02:27 1024 30.24 853 25.19 7.7 45.9 76 3.8 38.9 8.11 0.319
02:28 1024 30.24 853 25.19 7.8 46 76 3.8 38.8 8.13 0.32
02:29 1024 30.24 853 25.19 7.8 46.1 76 3.8 38.9 8.13 0.32
02:30 1024 30.24 853 25.19 7.8 46 76 3.8 38.8 8.11 0.319
02:31 1024 30.24 853 25.19 7.7 45.9 76 3.8 38.8 8.05 0.317
02:32 1024 30.24 853 25.19 7.7 45.9 76 3.7 38.7 8.02 0.316
02:33 1024 30.24 853 25.19 7.7 45.8 76 3.8 38.8 7.96 0.313
02:34 1024 30.24 853 25.19 7.6 45.7 76 3.8 38.8 7.96 0.313
02:35 1024 30.24 853 25.19 7.6 45.7 76 3.7 38.7 7.95 0.313
02:36 1024 30.24 853 25.19 7.7 45.8 76 3.8 38.8 7.98 0.314
02:37 1024 30.24 853 25.19 7.7 45.8 76 3.7 38.7 7.99 0.315
02:38 1024 30.24 853 25.19 7.6 45.6 77 3.8 38.8 7.89 0.311
02:39 1024 30.24 853 25.19 7.4 45.3 78 3.8 38.9 7.76 0.306
02:40 1024 30.24 853 25.19 7.2 44.9 79 3.9 39 7.58 0.298
02:41 1024 30.24 853 25.19 7 44.7 80 3.8 38.9 7.49 0.295
02:42 1024 30.24 853 25.19 7 44.5 80 3.8 38.9 7.39 0.291
02:43 1024 30.24 853 25.19 6.7 44.1 81 3.8 38.8 7.19 0.283
02:44 1024 30.24 853 25.19 6.6 43.9 82 3.8 38.8 7.03 0.277
02:45 1024 30.24 853 25.19 6.5 43.6 82 3.7 38.6 6.899 0.272
02:46 1024 30.24 853 25.19 6.3 43.3 84 3.7 38.7 6.72 0.265
02:47 1024 30.24 853 25.19 6.2 43.1 84 3.7 38.6 6.641 0.261
02:48 1024 30.24 853 25.19 6.1 42.9 84 3.6 38.5 6.511 0.256
02:49 1024 30.24 853 25.19 6.1 42.9 85 3.8 38.9 6.502 0.256
02:50 1024 30.24 853 25.19 6.3 43.3 84 3.8 38.8 6.66 0.262
02:51 1024 30.24 853 25.19 6.3 43.4 84 3.8 38.8 6.717 0.264
02:52 1024 30.24 853 25.19 6.4 43.5 83 3.8 38.8 6.792 0.267
02:53 1024 30.24 853 25.19 6.5 43.7 82 3.6 38.5 6.843 0.269
02:54 1024 30.24 853 25.19 6.3 43.3 82 3.5 38.3 6.656 0.262
02:55 1024 30.24 853 25.19 6.1 42.9 83 3.5 38.3 6.46 0.254
02:56 1024 30.24 853 25.19 6 42.7 84 3.5 38.3 6.375 0.251
02:57 1024 30.24 853 25.19 5.9 42.6 85 3.5 38.2 6.285 0.247
02:58 1024 30.24 853 25.19 5.8 42.5 85 3.5 38.3 6.212 0.245
02:59 1024 30.24 853 25.19 5.7 42.3 85 3.5 38.3 6.15 0.242
03:00 1024 30.24 853 25.19 5.7 42.3 86 3.5 38.3 6.133 0.241
03:01 1024 30.24 853 25.19 5.7 42.2 86 3.5 38.2 6.111 0.241
03:02 1024 30.24 853 25.19 5.7 42.2 86 3.5 38.3 6.072 0.239
03:03 1024 30.24 853 25.19 5.7 42.2 86 3.4 38.2 6.072 0.239
03:04 1024 30.24 853 25.19 5.7 42.2 86 3.5 38.3 6.072 0.239
03:05 1024 30.24 853 25.19 5.7 42.3 85 3.5 38.2 6.095 0.24
03:06 1024 30.24 853 25.19 5.7 42.3 85 3.5 38.3 6.118 0.241
03:07 1024 30.24 853 25.19 5.8 42.4 86 3.6 38.4 6.158 0.242
03:08 1024 30.24 853 25.19 5.8 42.5 85 3.6 38.5 6.197 0.244
03:09 1024 30.24 853 25.19 5.9 42.6 85 3.6 38.4 6.248 0.246
03:10 1024 30.24 853 25.19 5.9 42.7 85 3.6 38.4 6.3 0.248
03:11 1024 30.24 853 25.19 6 42.8 85 3.6 38.5 6.288 0.248
03:12 1024 30.24 853 25.19 5.9 42.6 85 3.5 38.3 6.26 0.246
03:13 1024 30.24 853 25.19 5.8 42.5 85 3.5 38.4 6.204 0.244
03:14 1024 30.24 853 25.19 5.8 42.4 86 3.6 38.4 6.147 0.242
03:15 1024 30.24 853 25.19 5.8 42.4 86 3.7 38.6 6.13 0.241
03:16 1024 30.24 853 25.19 5.8 42.4 86 3.7 38.6 6.159 0.242
03:17 1024 30.24 853 25.19 5.8 42.4 86 3.6 38.4 6.147 0.242
03:18 1024 30.24 853 25.19 5.8 42.4 86 3.6 38.5 6.108 0.24
03:19 1024 30.24 853 25.19 5.7 42.3 86 3.5 38.3 6.131 0.241
03:20 1024 30.24 853 25.19 5.7 42.2 86 3.5 38.2 6.063 0.239
03:21 1024 30.24 853 25.19 5.7 42.2 86 3.5 38.3 6.086 0.24
03:22 1024 30.24 853 25.19 5.7 42.3 86 3.5 38.3 6.114 0.241
03:23 1024 30.24 853 25.19 5.8 42.4 85 3.5 38.3 6.137 0.242
03:24 1024 30.24 853 25.19 5.8 42.4 85 3.5 38.2 6.137 0.242
03:25 1024 30.24 853 25.19 5.7 42.3 85 3.4 38.1 6.08 0.239
03:26 1024 30.24 853 25.19 5.7 42.2 85 3.4 38.1 6.091 0.24
03:27 1024 30.24 853 25.19 5.7 42.2 85 3.4 38.1 6.041 0.238
03:28 1024 30.24 853 25.19 5.6 42.1 85 3.3 38 5.978 0.235
03:29 1024 30.24 853 25.19 5.6 42 85 3.3 37.9 5.945 0.234
03:30 1024 30.24 853 25.19 5.5 42 86 3.3 38 5.916 0.233
03:31 1024 30.24 853 25.19 5.5 42 86 3.3 38 5.882 0.232
03:32 1024 30.24 853 25.19 5.5 41.9 86 3.3 38 5.877 0.231
03:33 1024 30.24 853 25.19 5.5 41.9 86 3.3 38 5.888 0.232
03:34 1024 30.24 853 25.19 5.5 41.9 86 3.4 38.2 5.922 0.233
03:35 1024 30.24 853 25.19 5.8 42.4 85 3.4 38.1 6.199 0.244
03:36 1024 30.24 853 25.19 6 42.8 83 3.4 38.1 6.397 0.252
03:37 1024 30.24 853 25.19 6.2 43.1 82 3.4 38.1 6.539 0.257
03:38 1024 30.24 853 25.19 6.3 43.3 82 3.4 38.1 6.618 0.261
03:39 1024 30.24 853 25.19 6.3 43.4 82 3.4 38.1 6.607 0.26
03:40 1024 30.24 853 25.19 6.3 43.4 81 3.4 38.1 6.652 0.262
03:41 1024 30.24 853 25.19 6.3 43.4 81 3.4 38.1 6.618 0.261
03:42 1024 30.24 853 25.19 6.3 43.3 82 3.4 38.1 6.573 0.259
03:43 1024 30.24 853 25.19 6.2 43.2 82 3.3 38 6.493 0.256
03:44 1024 30.24 853 25.19 6.1 43 82 3.3 38 6.397 0.252
03:45 1024 30.24 853 25.19 6 42.8 83 3.3 37.9 6.341 0.25
03:46 1024 30.24 853 25.19 5.9 42.6 83 3.3 37.9 6.25 0.246
03:47 1024 30.24 853 25.19 5.8 42.5 84 3.3 37.9 6.182 0.243
03:48 1024 30.24 853 25.19 5.8 42.4 84 3.3 37.9 6.115 0.241
03:49 1024 30.24 853 25.19 5.7 42.3 85 3.4 38.1 6.137 0.242
03:50 1024 30.24 853 25.19 5.8 42.5 84 3.4 38 6.268 0.247
03:51 1024 30.24 853 25.19 6 42.7 83 3.4 38.1 6.427 0.253
03:52 1024 30.24 853 25.19 6.2 43.1 82 3.4 38.1 6.489 0.255
03:53 1024 30.24 853 25.19 6.2 43.2 82 3.4 38.1 6.558 0.258
03:54 1024 30.24 853 25.19 6.3 43.3 82 3.4 38.1 6.576 0.259
03:55 1024 30.24 853 25.19 6.2 43.2 82 3.4 38.1 6.502 0.256
03:56 1024 30.24 853 25.19 6 42.8 83 3.4 38.1 6.378 0.251
03:57 1024 30.24 853 25.19 5.8 42.5 84 3.4 38.1 6.215 0.245
03:58 1024 30.24 853 25.19 5.7 42.2 85 3.3 38 6.09 0.24
03:59 1024 30.24 853 25.19 5.5 41.9 86 3.3 38 5.932 0.234
04:00 1024 30.24 853 25.19 5.4 41.7 87 3.3 38 5.803 0.228
04:01 1024 30.24 853 25.19 5.3 41.5 87 3.2 37.8 5.684 0.224
04:02 1024 30.24 853 25.19 5.1 41.3 87 3.2 37.7 5.582 0.22
04:03 1024 30.24 853 25.19 5 41 87 3.1 37.6 5.452 0.215
04:04 1024 30.24 853 25.19 4.9 40.8 88 3.1 37.5 5.334 0.21
04:05 1024 30.24 853 25.19 4.8 40.7 88 3.1 37.6 5.295 0.208
04:06 1024 30.24 853 25.19 4.8 40.7 89 3.1 37.6 5.296 0.209
04:07 1024 30.24 853 25.19 4.8 40.7 88 3.1 37.5 5.245 0.206
04:08 1024 30.24 853 25.19 4.8 40.6 89 3 37.5 5.212 0.205
04:09 1024 30.24 853 25.19 4.7 40.5 88 3 37.4 5.179 0.204
04:10 1024 30.24 853 25.19 4.7 40.4 89 3 37.4 5.122 0.202
04:11 1024 30.24 853 25.19 4.6 40.3 89 3 37.3 5.084 0.2
04:12 1024 30.24 853 25.19 4.6 40.3 89 2.9 37.3 5.028 0.198
04:13 1024 30.24 853 25.19 4.5 40.2 89 2.9 37.2 4.971 0.196
04:14 1024 30.24 853 25.19 4.5 40.1 89 2.8 37.1 4.887 0.192
04:15 1024 30.24 853 25.19 4.4 39.9 90 2.9 37.2 4.848 0.191
04:16 1024 30.24 853 25.19 4.4 39.9 90 2.9 37.2 4.791 0.189
04:17 1024 30.24 853 25.19 4.4 39.8 91 3 37.4 4.78 0.188
04:18 1024 30.24 853 25.19 4.4 39.9 91 3.1 37.5 4.814 0.19
04:19 1024 30.24 853 25.19 4.5 40 90 3 37.4 4.882 0.192
04:20 1024 30.24 853 25.19 4.5 40.2 90 3.1 37.6 4.934 0.194
04:21 1024 30.24 853 25.19 4.6 40.3 90 3.2 37.7 5.053 0.199
04:22 1024 30.24 853 25.19 4.8 40.6 90 3.2 37.8 5.143 0.202
04:23 1024 30.24 853 25.19 5 41 89 3.4 38.1 5.325 0.21
04:24 1024 30.24 853 25.19 5.2 41.4 87 3.3 37.9 5.461 0.215
04:25 1024 30.24 853 25.19 5.3 41.5 86 3.2 37.7 5.483 0.216
04:26 1024 30.24 853 25.19 5.4 41.7 86 3.2 37.8 5.614 0.221
04:27 1024 30.24 853 25.19 5.4 41.8 85 3.2 37.7 5.682 0.224
04:28 1024 30.24 853 25.19 5.5 41.9 85 3.2 37.7 5.71 0.225
04:29 1024 30.24 853 25.19 5.5 41.9 85 3.1 37.6 5.733 0.226
04:30 1024 30.24 853 25.19 5.5 41.9 85 3.2 37.7 5.733 0.226
04:31 1024 30.24 853 25.19 5.5 41.8 85 3.1 37.6 5.71 0.225
04:32 1024 30.24 853 25.19 5.5 41.9 84 3.1 37.5 5.728 0.226
04:33 1024 30.24 853 25.19 5.3 41.6 85 3 37.4 5.637 0.222
04:34 1024 30.24 853 25.19 5.3 41.5 84 2.8 37 5.547 0.218
04:35 1024 30.24 853 25.19 5.1 41.2 86 2.9 37.2 5.377 0.212
04:36 1024 30.24 853 25.19 5.1 41.3 87 3.1 37.5 5.451 0.215
04:37 1024 30.24 853 25.19 5.3 41.5 85 3 37.3 5.558 0.219
04:38 1024 30.24 853 25.19 5.3 41.5 85 3 37.3 5.587 0.22
04:39 1024 30.24 853 25.19 5.3 41.5 86 3.1 37.5 5.587 0.22
04:40 1024 30.24 853 25.19 5.4 41.7 84 2.9 37.3 5.626 0.221
04:41 1024 30.24 853 25.19 5.3 41.6 85 3 37.4 5.621 0.221
04:42 1024 30.24 853 25.19 5.3 41.6 85 3.1 37.5 5.615 0.221
04:43 1024 30.24 853 25.19 5.4 41.7 85 3 37.4 5.66 0.223
04:44 1024 30.24 853 25.19 5.4 41.7 83 2.8 37.1 5.638 0.222
04:45 1024 30.24 853 25.19 5.2 41.4 84 2.8 37 5.485 0.216
04:46 1024 30.24 853 25.19 5 41.1 85 2.8 37.1 5.372 0.211
04:47 1024 30.24 853 25.19 4.9 40.8 86 2.8 37 5.287 0.208
04:48 1024 30.24 853 25.19 4.8 40.7 86 2.7 36.9 5.185 0.204
04:49 1024 30.24 853 25.19 4.7 40.5 87 2.7 36.9 5.072 0.2
04:50 1024 30.24 853 25.19 4.6 40.3 87 2.7 36.8 5.038 0.198
04:51 1024 30.24 853 25.19 4.5 40.1 87 2.6 36.7 4.948 0.195
04:52 1024 30.24 853 25.19 4.5 40 88 2.6 36.7 4.88 0.192
04:53 1024 30.24 853 25.19 4.4 39.9 89 2.7 36.9 4.835 0.19
04:54 1024 30.24 853 25.19 4.4 40 89 2.8 37 4.846 0.191
04:55 1024 30.24 853 25.19 4.5 40.1 89 2.9 37.2 4.925 0.194
04:56 1024 30.24 853 25.19 4.6 40.3 89 2.9 37.3 5.038 0.198
04:57 1024 30.24 853 25.19 4.8 40.7 88 3 37.4 5.163 0.203
04:58 1024 30.24 853 25.19 5 41 87 3.1 37.5 5.316 0.209
04:59 1024 30.24 853 25.19 5.1 41.2 87 3.1 37.5 5.446 0.214
05:00 1024 30.24 853 25.19 5.2 41.4 86 3.1 37.6 5.547 0.218
05:01 1024 30.24 853 25.19 5.3 41.6 86 3.2 37.7 5.604 0.221
05:02 1024 30.24 853 25.19 5.4 41.7 86 3.2 37.8 5.678 0.224
05:03 1024 30.24 853 25.19 5.4 41.7 86 3.3 37.9 5.706 0.225
05:04 1024 30.24 853 25.19 5.5 41.8 85 3.2 37.8 5.762 0.227
05:05 1024 30.24 853 25.19 5.6 42.1 85 3.2 37.8 5.836 0.23
05:06 1024 30.24 853 25.19 5.6 42.1 85 3.3 37.9 5.893 0.232
05:07 1024 30.24 853 25.19 5.5 42 85 3.1 37.7 5.893 0.232
05:08 1024 30.24 853 25.19 5.4 41.8 85 3.1 37.5 5.779 0.228
05:09 1024 30.24 853 25.19 5.3 41.6 86 3.1 37.6 5.672 0.223
05:10 1024 30.24 853 25.19 5.2 41.3 86 3 37.4 5.565 0.219
05:11 1024 30.24 853 25.19 5.1 41.2 86 3 37.4 5.474 0.216
05:12 1024 30.24 853 25.19 5 41.1 86 2.9 37.2 5.406 0.213
05:13 1024 30.24 853 25.19 4.9 40.9 86 2.8 37.1 5.344 0.21
05:14 1024 30.24 853 25.19 4.9 40.8 87 3 37.3 5.321 0.209
05:15 1024 30.24 853 25.19 4.9 40.9 87 2.9 37.3 5.35 0.211
05:16 1024 30.24 853 25.19 5 41 87 3.1 37.5 5.429 0.214
05:17 1024 30.24 853 25.19 5.2 41.4 86 3.1 37.5 5.576 0.22
05:18 1024 30.24 853 25.19 5.4 41.6 85 3.1 37.5 5.621 0.221
05:19 1024 30.24 853 25.19 5.4 41.7 85 3 37.5 5.649 0.222
05:20 1024 30.24 853 25.19 5.4 41.6 85 3 37.4 5.638 0.222
05:21 1024 30.24 853 25.19 5.3 41.6 85 3 37.4 5.604 0.221
05:22 1024 30.24 853 25.19 5.3 41.5 85 3 37.4 5.57 0.219
05:23 1024 30.24 853 25.19 5.3 41.5 85 3 37.4 5.553 0.219
05:24 1024 30.24 853 25.19 5.2 41.4 85 2.9 37.3 5.542 0.218
05:25 1024 30.24 853 25.19 5.2 41.3 86 3 37.4 5.468 0.215
05:26 1024 30.24 853 25.19 5.2 41.3 86 3 37.5 5.502 0.217
05:27 1024 30.24 853 25.19 5.2 41.4 86 3 37.5 5.474 0.216
05:28 1024 30.24 853 25.19 5.2 41.3 86 3 37.5 5.429 0.214
05:29 1024 30.24 853 25.19 5.1 41.1 86 2.9 37.3 5.417 0.213
05:30 1024 30.24 853 25.19 5 41.1 86 2.9 37.3 5.321 0.209
05:31 1024 30.24 853 25.19 5 41 86 2.9 37.2 5.293 0.208
05:32 1024 30.24 853 25.19 4.9 40.8 86 2.7 36.8 5.191 0.204
05:33 1024 30.24 853 25.19 4.7 40.5 86 2.5 36.6 5.044 0.199
05:34 1024 30.24 853 25.19 4.6 40.2 87 2.6 36.7 4.948 0.195
05:35 1024 30.24 853 25.19 4.5 40.2 88 2.7 36.9 4.908 0.193
05:36 1024 30.24 853 25.19 4.5 40.1 88 2.7 36.8 4.908 0.193
05:37 1024 30.24 853 25.19 4.4 40 88 2.6 36.6 4.835 0.19
05:38 1024 30.24 853 25.19 4.4 39.9 88 2.6 36.6 4.756 0.187
05:39 1024 30.24 853 25.19 4.3 39.8 88 2.6 36.6 4.688 0.185
05:40 1024 30.24 853 25.19 4.3 39.7 89 2.6 36.8 4.654 0.183
05:41 1024 30.24 853 25.19 4.3 39.8 90 2.8 37 4.682 0.184
05:42 1024 30.24 853 25.19 4.4 39.9 89 2.8 37 4.722 0.186
05:43 1024 30.24 853 25.19 4.5 40 89 2.7 36.9 4.739 0.187
05:44 1024 30.24 853 25.19 4.5 40 89 2.8 37.1 4.767 0.188
05:45 1024 30.24 853 25.19 4.5 40.2 89 2.9 37.2 4.846 0.191
05:46 1024 30.24 853 25.19 4.6 40.3 89 2.9 37.2 4.925 0.194
05:47 1024 30.24 853 25.19 4.7 40.5 88 3 37.4 5.016 0.197
05:48 1024 30.24 853 25.19 4.9 40.8 87 2.9 37.3 5.18 0.204
05:49 1024 30.24 853 25.19 5 41 86 2.8 37.1 5.231 0.206
05:50 1024 30.24 853 25.19 5.1 41.1 86 2.9 37.2 5.253 0.207
05:51 1024 30.24 853 25.19 5.1 41.2 86 2.9 37.2 5.321 0.209
05:52 1024 30.24 853 25.19 5.2 41.3 86 2.9 37.3 5.378 0.212
05:53 1024 30.24 853 25.19 5.3 41.6 84 2.8 37 5.491 0.216
05:54 1024 30.24 853 25.19 5.2 41.4 84 2.8 37.1 5.451 0.215
05:55 1024 30.24 853 25.19 5.2 41.4 85 2.9 37.2 5.468 0.215
05:56 1024 30.24 853 25.19 5.2 41.3 85 2.9 37.1 5.434 0.214
05:57 1024 30.24 853 25.19 5.1 41.2 85 2.7 36.9 5.389 0.212
05:58 1024 30.24 853 25.19 4.9 40.9 85 2.6 36.7 5.242 0.206
05:59 1024 30.24 853 25.19 4.8 40.6 85 2.5 36.5 5.089 0.2
06:00 1024 30.24 853 25.19 4.6 40.3 87 2.6 36.7 4.948 0.195
06:01 1024 30.24 853 25.19 4.5 40.1 87 2.6 36.6 4.897 0.193
06:02 1024 30.24 853 25.19 4.5 40 87 2.6 36.6 4.784 0.188
06:03 1024 30.24 853 25.19 4.4 39.9 88 2.6 36.7 4.802 0.189
06:04 1024 30.24 853 25.19 4.4 40 88 2.7 36.8 4.814 0.19
06:05 1024 30.24 853 25.19 4.4 39.9 88 2.5 36.5 4.751 0.187
06:06 1024 30.24 853 25.19 4.3 39.7 87 2.4 36.3 4.689 0.185
06:07 1024 30.24 853 25.19 4.1 39.5 87 2.1 35.8 4.485 0.177
06:08 1024 30.24 853 25.19 3.9 39.1 87 2 35.6 4.35 0.171
06:09 1024 30.24 853 25.19 3.8 38.9 89 2.1 35.8 4.288 0.169
06:10 1024 30.24 853 25.19 3.8 38.8 90 2.3 36.1 4.221 0.166
06:11 1024 30.24 853 25.19 3.8 38.9 91 2.5 36.5 4.254 0.167
06:12 1024 30.24 853 25.19 3.9 39 91 2.6 36.7 4.265 0.168
06:13 1024 30.24 853 25.19 3.9 39.1 91 2.6 36.8 4.305 0.169
06:14 1024 30.24 853 25.19 4 39.1 91 2.6 36.8 4.356 0.171
06:15 1024 30.24 853 25.19 4.1 39.3 90 2.6 36.8 4.402 0.173
06:16 1024 30.24 853 25.19 4.2 39.5 90 2.7 36.9 4.476 0.176
06:17 1024 30.24 853 25.19 4.3 39.7 89 2.7 36.8 4.555 0.179
06:18 1024 30.24 853 25.19 4.3 39.7 89 2.7 36.8 4.584 0.18
06:19 1024 30.24 853 25.19 4.3 39.8 89 2.6 36.8 4.59 0.181
06:20 1024 30.24 853 25.19 4.4 40 88 2.6 36.8 4.647 0.183
06:21 1024 30.24 853 25.19 4.5 40 88 2.6 36.7 4.704 0.185
06:22 1024 30.24 853 25.19 4.5 40.1 87 2.6 36.6 4.738 0.187
06:23 1024 30.24 853 25.19 4.5 40.1 87 2.6 36.7 4.71 0.185
06:24 1024 30.24 853 25.19 4.5 40 88 2.6 36.6 4.755 0.187
06:25 1024 30.24 853 25.19 4.5 40 88 2.7 36.9 4.761 0.187
06:26 1024 30.24 853 25.19 4.6 40.3 88 2.8 37.1 4.835 0.19
06:27 1024 30.24 853 25.19 4.8 40.6 88 2.9 37.3 4.999 0.197
06:28 1024 30.24 853 25.19 4.9 40.8 87 3 37.4 5.152 0.203
06:29 1024 30.24 853 25.19 5 41 87 3 37.4 5.271 0.208
06:30 1024 30.24 853 25.19 5.1 41.2 87 3.1 37.5 5.378 0.212
06:31 1024 30.24 853 25.19 5.2 41.3 87 3.1 37.6 5.429 0.214
06:32 1024 30.24 853 25.19 5.3 41.5 86 3.1 37.7 5.571 0.219
06:33 1024 30.24 853 25.19 5.4 41.7 86 3.2 37.8 5.645 0.222
06:34 1024 30.24 853 25.19 5.5 41.9 85 3.2 37.7 5.792 0.228
06:35 1024 30.24 853 25.19 5.6 42.2 84 3.2 37.8 5.917 0.233
06:36 1024 30.24 853 25.19 5.8 42.4 84 3.2 37.7 6.024 0.237
06:37 1024 30.24 853 25.19 5.8 42.5 84 3.3 37.9 6.132 0.241
06:38 1024 30.24 853 25.19 5.9 42.6 84 3.3 38 6.173 0.243
06:39 1024 30.24 853 25.19 5.9 42.6 83 3.3 37.9 6.218 0.245
06:40 1024 30.24 853 25.19 5.9 42.7 83 3.3 37.9 6.252 0.246
06:41 1024 30.24 853 25.19 6 42.7 83 3.3 37.9 6.258 0.246
06:42 1024 30.24 853 25.19 6 42.7 83 3.3 37.9 6.326 0.249
06:43 1024 30.24 853 25.19 6 42.8 82 3.3 37.9 6.399 0.252
06:44 1024 30.24 853 25.19 6.1 43 82 3.3 38 6.473 0.255
06:45 1024 30.24 853 25.19 6.3 43.3 82 3.4 38.1 6.603 0.26
06:46 1024 30.24 853 25.19 6.3 43.3 82 3.4 38.2 6.654 0.262
06:47 1024 30.24 853 25.19 6.2 43.2 83 3.5 38.3 6.637 0.261
06:48 1024 30.24 853 25.19 6.2 43.1 83 3.5 38.3 6.597 0.26
06:49 1024 30.24 853 25.19 6.1 43 83 3.5 38.3 6.591 0.259
06:50 1024 30.24 853 25.19 6.1 42.9 84 3.5 38.3 6.54 0.257
06:51 1024 30.24 853 25.19 6.1 42.9 84 3.6 38.4 6.529 0.257
06:52 1024 30.24 853 25.19 6.1 43 84 3.6 38.5 6.58 0.259
06:53 1024 30.24 853 25.19 6.2 43.1 83 3.6 38.4 6.631 0.261
06:54 1024 30.24 853 25.19 6.3 43.3 83 3.6 38.5 6.721 0.265
06:55 1024 30.24 853 25.19 6.4 43.5 82 3.6 38.5 6.846 0.27
06:56 1024 30.24 853 25.19 6.5 43.7 82 3.7 38.6 6.97 0.274
06:57 1024 30.24 853 25.19 6.6 43.8 82 3.6 38.6 7.04 0.277
06:58 1024 30.24 853 25.19 6.7 44 81 3.7 38.7 7.15 0.281
06:59 1024 30.24 853 25.19 6.8 44.2 81 3.8 38.9 7.26 0.286
07:00 1024 30.24 853 25.19 6.9 44.3 81 3.8 38.8 7.37 0.29
07:01 1024 30.24 853 25.19 6.9 44.4 79 3.6 38.4 7.45 0.293
07:02 1024 30.24 853 25.19 7 44.6 80 3.8 38.8 7.52 0.296
07:03 1024 30.24 853 25.19 7.1 44.7 80 3.9 39 7.59 0.299
07:04 1024 30.24 853 25.19 7.1 44.8 80 3.9 38.9 7.66 0.302
07:05 1024 30.24 853 25.19 7.1 44.8 79 3.8 38.9 7.65 0.301
07:06 1024 30.24 853 25.19 7.1 44.8 80 4 39.1 7.69 0.303
07:07 1024 30.24 853 25.19 7.1 44.8 80 3.8 38.9 7.69 0.303
07:08 1024 30.24 853 25.19 7.2 44.9 80 4 39.2 7.69 0.303
07:09 1024 30.24 853 25.19 7.2 44.9 80 4 39.1 7.74 0.305
07:10 1024 30.24 853 25.19 7.2 44.9 80 3.9 39 7.82 0.308
07:11 1024 30.24 853 25.19 7.3 45.1 80 4.1 39.3 7.91 0.311
07:12 1024 30.24 853 25.19 7.4 45.3 79 4.1 39.3 8.01 0.315
07:13 1024 30.24 853 25.19 7.4 45.4 79 4 39.3 8.08 0.318
07:14 1024 30.24 853 25.19 7.5 45.5 80 4.2 39.6 8.11 0.319
07:15 1024 30.24 853 25.19 7.6 45.6 79 4.2 39.6 8.17 0.322
07:16 1024 30.24 853 25.19 7.6 45.7 79 4.1 39.4 8.19 0.322
07:17 1024 30.24 853 25.19 7.6 45.8 79 4.2 39.5 8.23 0.324
07:18 1024 30.24 853 25.19 7.7 45.9 77 4 39.2 8.28 0.326
07:19 1024 30.24 853 25.19 7.8 46 78 4.1 39.5 8.33 0.328
07:20 1024 30.24 853 25.19 7.9 46.1 77 4.1 39.4 8.44 0.332
07:21 1024 30.24 853 25.19 8 46.3 77 4.2 39.6 8.59 0.338
07:22 1024 30.24 853 25.19 8 46.5 77 4.3 39.7 8.7 0.343
07:23 1024 30.24 853 25.19 8.2 46.7 76 4.2 39.6 8.76 0.345
07:24 1024 30.24 853 25.19 8.2 46.8 78 4.6 40.3 8.88 0.35
07:25 1024 30.24 853 25.19 8.3 47 76 4.4 39.9 9.02 0.355
07:26 1024 30.24 853 25.19 8.4 47.1 75 4.3 39.7 9.09 0.358
07:27 1024 30.24 853 25.19 8.4 47.2 75 4.2 39.6 9.18 0.361
07:28 1024 30.24 853 25.19 8.5 47.3 76 4.5 40 9.26 0.365
07:29 1024 30.24 853 25.19 8.5 47.3 76 4.5 40.1 9.28 0.365
07:30 1024 30.24 853 25.19 8.6 47.4 74 4.2 39.6 9.23 0.363
07:31 1024 30.24 853 25.19 8.6 47.5 75 4.6 40.2 9.22 0.363
07:32 1024 30.24 853 25.19 8.7 47.6 74 4.3 39.7 9.24 0.364
07:33 1024 30.24 853 25.19 8.7 47.7 75 4.5 40.1 9.3 0.366
07:34 1024 30.24 853 25.19 8.8 47.8 75 4.6 40.2 9.3 0.366
07:35 1024 30.24 853 25.19 8.8 47.8 77 4.9 40.9 9.37 0.369
07:36 1024 30.24 853 25.19 8.8 47.9 77 5 40.9 9.45 0.372
07:37 1024 30.24 853 25.19 8.9 48 75 4.7 40.5 9.48 0.373
07:38 1024 30.24 853 25.19 8.9 48.1 75 4.8 40.7 9.5 0.374
07:39 1024 30.24 853 25.19 9 48.2 76 5 41 9.59 0.378
07:40 1024 30.24 853 25.19 9 48.2 74 4.7 40.5 9.6 0.378
07:41 1024 30.24 853 25.19 9.1 48.3 76 5.1 41.2 9.59 0.378
07:42 1024 30.24 853 25.19 9.1 48.3 75 4.9 40.8 9.62 0.379
07:43 1024 30.24 853 25.19 9.1 48.4 73 4.6 40.3 9.64 0.38
07:44 1024 30.24 853 25.19 9.1 48.4 76 5.1 41.1 9.61 0.378
07:45 1024 30.24 853 25.19 9.2 48.6 75 5 41.1 9.75 0.384
07:46 1024 30.24 853 25.19 9.3 48.7 76 5.2 41.3 9.83 0.387
07:47 1024 30.24 853 25.19 9.3 48.8 77 5.6 42 9.88 0.389
07:48 1024 30.24 853 25.19 9.4 48.9 75 5.2 41.3 9.97 0.393
07:49 1024 30.24 853 25.19 9.4 48.9 75 5.2 41.3 9.96 0.392
07:50 1024 30.24 853 25.19 9.4 49 73 4.9 40.8 9.94 0.391
07:51 1024 30.24 853 25.19 9.5 49 72 4.8 40.6 10.01 0.394
07:52 1024 30.24 853 25.19 9.5 49.2 71 4.6 40.2 10.08 0.397
07:53 1024 30.24 853 25.19 9.6 49.3 71 4.7 40.5 10.08 0.397
07:54 1024 30.24 853 25.19 9.6 49.3 72 4.7 40.5 10.1 0.398
07:55 1024 30.24 853 25.19 9.7 49.4 73 5 41.1 10.2 0.402
07:56 1024 30.24 853 25.19 9.7 49.5 73 5.1 41.2 10.27 0.404
07:57 1024 30.24 853 25.19 9.8 49.7 73 5.3 41.5 10.31 0.406
07:58 1024 30.24 853 25.19 9.9 49.9 70 4.8 40.7 10.49 0.413
07:59 1024 30.24 853 25.19 10 50 70 4.8 40.6 10.46 0.412
08:00 1024 30.24 853 25.19 10 50 70 4.9 40.8 10.55 0.415
08:01 1024 30.24 853 25.19 10 50.1 71 5.1 41.2 10.56 0.416
08:02 1024 30.24 853 25.19 10 50 70 4.8 40.7 10.56 0.416
08:03 1024 30.24 853 25.19 10.1 50.2 69 4.8 40.6 10.64 0.419
08:04 1024 30.24 853 25.19 10.1 50.2 70 4.9 40.7 10.61 0.418
08:05 1024 30.24 853 25.19 10.2 50.3 69 4.8 40.6 10.66 0.42
08:06 1024 30.24 853 25.19 10.2 50.4 70 4.9 40.9 10.72 0.422
08:07 1024 30.24 853 25.19 10.3 50.5 68 4.6 40.3 10.81 0.426
08:08 1024 30.24 853 25.19 10.3 50.6 69 4.9 40.8 10.88 0.428
08:09 1024 30.24 853 25.19 10.4 50.8 67 4.6 40.3 10.96 0.431
08:10 1024 30.24 853 25.19 10.5 50.9 69 5.2 41.3 11 0.433
08:11 1024 30.24 853 25.19 10.6 51.1 71 5.7 42.2 11.14 0.439
08:12 1024 30.24 853 25.19 10.6 51.2 68 5 41 11.19 0.441
08:13 1024 30.24 853 25.19 10.7 51.2 70 5.4 41.7 11.22 0.442
08:14 1024 30.24 853 25.19 10.7 51.3 69 5.3 41.6 11.24 0.443
08:15 1024 30.24 853 25.19 10.7 51.3 69 5.3 41.5 11.28 0.444
08:16 1024 30.24 853 25.19 10.8 51.5 67 5 41 11.37 0.448
08:17 1024 30.24 853 25.19 10.8 51.5 68 5.2 41.4 11.39 0.448
08:18 1024 30.24 853 25.19 10.9 51.6 68 5.2 41.4 11.45 0.451
08:19 1024 30.24 853 25.19 11 51.8 67 5.2 41.4 11.61 0.457
08:20 1024 30.24 853 25.19 11.2 52.1 68 5.6 42.1 11.84 0.466
08:21 1024 30.24 853 25.19 11.3 52.4 64 4.8 40.7 12.04 0.474
08:22 1024 30.24 853 25.19 11.4 52.5 64 4.9 40.8 12.08 0.476
08:23 1024 30.24 853 25.19 11.5 52.7 62 4.6 40.3 12.25 0.482
08:24 1024 30.24 853 25.19 11.5 52.6 66 5.5 41.9 12.29 0.484
08:25 1024 30.24 853 25.19 11.5 52.6 66 5.5 41.9 12.35 0.486
08:26 1024 30.24 853 25.19 11.5 52.6 63 4.7 40.5 12.35 0.486
08:27 1024 30.24 853 25.19 11.5 52.6 66 5.4 41.8 12.33 0.485
08:28 1024 30.24 853 25.19 11.5 52.8 64 5 41 12.31 0.485
08:29 1024 30.24 853 25.19 11.5 52.7 64 5 40.9 12.34 0.486
08:30 1024 30.24 853 25.19 11.5 52.8 65 5.1 41.3 12.36 0.487
08:31 1024 30.24 853 25.19 11.6 52.8 64 5.1 41.3 12.42 0.489
08:32 1024 30.24 853 25.19 11.6 52.9 64 5 41 12.46 0.491
08:33 1024 30.24 853 25.19 11.7 53.1 60 4.4 39.8 12.37 0.487
08:34 1024 30.24 853 25.19 11.7 53.1 65 5.3 41.6 12.23 0.481
08:35 1024 30.24 853 25.19 11.7 53.1 63 4.9 40.8 12.21 0.481
08:36 1024 30.24 853 25.19 11.8 53.2 61 4.6 40.2 12.18 0.48
08:37 1024 30.24 853 25.19 11.8 53.3 64 5.2 41.4 12.18 0.48
08:38 1024 30.24 853 25.19 11.9 53.3 64 5.4 41.7 12.24 0.482
08:39 1024 30.24 853 25.19 12 53.6 64 5.5 41.9 12.44 0.49
08:40 1024 30.24 853 25.19 12 53.7 65 5.6 42.1 12.5 0.492
08:41 1024 30.24 853 25.19 12.1 53.7 63 5.2 41.4 12.48 0.491
08:42 1024 30.24 853 25.19 12.1 53.7 63 5.3 41.5 12.59 0.496
08:43 1024 30.24 853 25.19 12.2 53.9 62 5.1 41.2 12.71 0.5
08:44 1024 30.24 853 25.19 12.2 53.9 59 4.5 40.1 12.74 0.502
08:45 1024 30.24 853 25.19 12.1 53.7 63 5.2 41.4 12.69 0.5
08:46 1024 30.24 853 25.19 12.1 53.9 61 5 41 12.72 0.501
08:47 1024 30.24 853 25.19 12.2 54 62 5.3 41.5 12.71 0.5
08:48 1024 30.24 853 25.19 12.3 54.1 59 4.5 40.1 12.78 0.503
08:49 1024 30.24 853 25.19 12.4 54.2 62 5.3 41.5 12.75 0.502
08:50 1024 30.24 853 25.19 12.4 54.4 60 4.9 40.8 12.87 0.507
08:51 1024 30.24 853 25.19 12.4 54.3 60 5 40.9 12.98 0.511
08:52 1024 30.24 853 25.19 12.5 54.4 62 5.5 41.9 13.03 0.513
08:53 1024 30.24 853 25.19 12.6 54.6 60 5 41 13.19 0.519
08:54 1024 30.24 853 25.19 12.6 54.8 60 5.1 41.1 13.28 0.523
08:55 1024 30.24 853 25.19 12.7 54.8 60 5.1 41.2 13.3 0.524
08:56 1024 30.24 853 25.19 12.7 54.9 62 5.8 42.4 13.37 0.526
08:57 1024 30.24 853 25.19 12.8 55.1 57 4.7 40.4 13.51 0.532
08:58 1024 30.24 853 25.19 12.9 55.2 59 5.1 41.3 13.55 0.533
08:59 1024 30.24 853 25.19 12.8 55 58 4.7 40.5 13.44 0.529
09:00 1024 30.24 853 25.19 12.8 55 58 4.9 40.7 13.39 0.527
09:01 1024 30.24 853 25.19 12.8 55 59 5 41 13.31 0.524
09:02 1024 30.24 853 25.19 12.8 55.1 59 5.2 41.3 13.27 0.522
09:03 1024 30.24 853 25.19 12.9 55.2 60 5.4 41.8 13.35 0.526
09:04 1024 30.24 853 25.19 13 55.3 59 5.2 41.4 13.34 0.525
09:05 1024 30.24 853 25.19 13 55.3 57 4.8 40.6 13.39 0.527
09:06 1024 30.24 853 25.19 13.1 55.5 60 5.5 41.9 13.48 0.531
09:07 1024 30.24 853 25.19 13.2 55.7 60 5.7 42.2 13.52 0.532
09:08 1024 30.24 853 25.19 13 55.5 59 5.4 41.7 13.5 0.531
09:09 1024 30.24 853 25.19 12.9 55.3 58 4.8 40.7 13.4 0.528
09:10 1024 30.24 853 25.19 12.9 55.2 58 4.8 40.6 13.31 0.524
09:11 1024 30.24 853 25.19 12.9 55.2 59 5.3 41.5 13.35 0.526
09:12 1024 30.24 853 25.19 13 55.3 57 4.8 40.7 13.51 0.532
09:13 1024 30.24 853 25.19 13.1 55.6 58 5 41 13.59 0.535
09:14 1024 30.24 853 25.19 13.3 55.9 60 5.7 42.2 13.69 0.539
09:15 1024 30.24 853 25.19 13.5 56.4 58 5.5 41.9 13.96 0.55
09:16 1024 30.24 853 25.19 13.7 56.6 60 6.2 43.1 14.15 0.557
09:17 1024 30.24 853 25.19 13.7 56.6 58 5.6 42.1 14.21 0.559
09:18 1024 30.24 853 25.19 13.6 56.5 58 5.4 41.8 14.21 0.559
09:19 1024 30.24 853 25.19 13.6 56.5 57 5.2 41.4 14.25 0.561
09:20 1024 30.24 853 25.19 13.6 56.5 62 6.6 43.8 14.32 0.564
09:21 1024 30.24 853 25.19 13.7 56.6 56 5.1 41.1 14.34 0.565
09:22 1024 30.24 853 25.19 13.6 56.4 59 5.7 42.2 14.2 0.559
09:23 1024 30.24 853 25.19 13.6 56.4 59 5.9 42.6 14.26 0.561
09:24 1024 30.24 853 25.19 13.7 56.6 55 5 40.9 14.18 0.558
09:25 1024 30.24 853 25.19 13.8 56.8 59 5.9 42.7 14.17 0.558
09:26 1024 30.24 853 25.19 13.9 56.9 55 5 41 14.17 0.558
09:27 1024 30.24 853 25.19 13.8 56.9 57 5.5 41.9 14.04 0.553
09:28 1024 30.24 853 25.19 13.8 56.9 56 5.3 41.5 14.07 0.554
09:29 1024 30.24 853 25.19 13.9 57 55 5 41 14.15 0.557
09:30 1024 30.24 853 25.19 14 57.2 57 5.8 42.4 14.23 0.56
09:31 1024 30.24 853 25.19 14.2 57.5 55 5.4 41.8 14.43 0.568
09:32 1024 30.24 853 25.19 14.3 57.8 53 5 41.1 14.66 0.577
09:33 1024 30.24 853 25.19 14.6 58.2 53 5.2 41.4 14.9 0.587
09:34 1024 30.24 853 25.19 14.8 58.6 52 5.2 41.3 15.15 0.596
09:35 1024 30.24 853 25.19 14.9 58.7 54 5.7 42.2 15.24 0.6
09:36 1024 30.24 853 25.19 14.9 58.9 55 6 42.9 15.27 0.601
09:37 1024 30.24 853 25.19 15 59 53 5.6 42.1 15.17 0.597
09:38 1024 30.24 853 25.19 14.9 58.9 52 5.3 41.5 14.94 0.588
09:39 1024 30.24 853 25.19 14.8 58.6 60 7.1 44.7 14.69 0.578
09:40 1024 30.24 853 25.19 14.7 58.5 58 6.6 43.8 14.7 0.579
09:41 1024 30.24 853 25.19 14.7 58.4 57 6.2 43.1 14.67 0.578
09:42 1024 30.24 853 25.19 14.6 58.3 54 5.4 41.8 14.63 0.576
09:43 1024 30.24 853 25.19 14.5 58.2 54 5.4 41.8 14.57 0.574
09:44 1024 30.24 853 25.19 14.4 57.9 59 6.6 43.8 14.52 0.572
09:45 1024 30.24 853 25.19 14.4 58 56 5.9 42.6 14.65 0.577
09:46 1024 30.24 853 25.19 14.4 57.9 57 6 42.8 14.64 0.576
09:47 1024 30.24 853 25.19 14.3 57.8 55 5.5 42 14.68 0.578
09:48 1024 30.24 853 25.19 14.4 57.9 59 6.7 44 14.69 0.578
09:49 1024 30.24 853 25.19 14.5 58 55 5.6 42.2 14.75 0.581
09:50 1024 30.24 853 25.19 14.6 58.3 54 5.5 41.8 14.82 0.583
09:51 1024 30.24 853 25.19 14.7 58.5 53 5.2 41.4 14.96 0.589
09:52 1024 30.24 853 25.19 14.8 58.6 56 6.2 43.2 14.85 0.585
09:53 1024 30.24 853 25.19 14.8 58.7 61 7.4 45.4 14.94 0.588
09:54 1024 30.24 853 25.19 14.9 58.8 56 6.4 43.5 15.03 0.592
09:55 1024 30.24 853 25.19 14.9 58.8 53 5.4 41.8 14.93 0.588
09:56 1024 30.24 853 25.19 14.9 58.8 55 6 42.8 14.98 0.59
09:57 1023 30.21 853 25.19 15 59 55 6 42.8 15.1 0.594
09:58 1023 30.21 853 25.19 15.1 59.1 53 5.6 42.2 15.11 0.595
09:59 1023 30.21 853 25.19 15 59 53 5.7 42.3 15.02 0.591
10:00 1023 30.21 853 25.19 14.9 58.9 53 5.6 42.1 14.95 0.589
10:01 1023 30.21 853 25.19 14.9 58.8 55 6.1 43 14.95 0.589
10:02 1023 30.21 853 25.19 14.9 58.7 53 5.5 41.8 15.01 0.591
10:03 1023 30.21 853 25.19 14.8 58.7 57 6.5 43.6 14.92 0.587
10:04 1023 30.21 853 25.19 14.9 58.7 54 5.7 42.3 14.94 0.588
10:05 1023 30.21 853 25.19 14.8 58.6 54 5.6 42.2 14.86 0.585
10:06 1023 30.21 853 25.19 14.8 58.6 55 5.9 42.6 14.86 0.585
10:07 1023 30.21 853 25.19 14.8 58.7 52 5 41.1 14.89 0.586
10:08 1023 30.21 853 25.19 14.9 58.7 54 5.8 42.5 14.99 0.59
10:09 1023 30.21 853 25.19 14.9 58.9 52 5.2 41.3 15.24 0.6
10:10 1023 30.21 853 25.19 15 59.1 54 5.8 42.5 15.4 0.606
10:11 1023 30.21 853 25.19 15 58.9 50 4.7 40.5 15.35 0.604
10:12 1023 30.21 853 25.19 14.8 58.6 54 5.7 42.2 15.23 0.6
10:13 1023 30.21 853 25.19 14.9 58.7 57 6.5 43.8 15.32 0.603
10:14 1023 30.21 853 25.19 15.1 59.1 53 5.6 42.1 15.48 0.609
10:15 1023 30.21 853 25.19 15.1 59.2 51 5.2 41.4 15.33 0.604
10:16 1023 30.21 853 25.19 15.1 59.2 59 7.2 44.9 15.19 0.598
10:17 1023 30.21 853 25.19 15.1 59.2 54 6.1 42.9 15.33 0.604
10:18 1023 30.21 853 25.19 15.1 59.2 56 6.4 43.5 15.34 0.604
10:19 1023 30.21 853 25.19 15.1 59.2 52 5.4 41.8 15.41 0.607
10:20 1023 30.21 853 25.19 15.3 59.5 54 6 42.9 15.51 0.611
10:21 1023 30.21 853 25.19 15.5 59.9 56 6.8 44.2 15.65 0.616
10:22 1023 30.21 853 25.19 15.7 60.2 54 6.5 43.8 15.8 0.622
10:23 1023 30.21 853 25.19 15.7 60.3 53 6.3 43.3 15.79 0.622
10:24 1023 30.21 853 25.19 15.7 60.2 53 6.1 43.1 15.64 0.616
10:25 1023 30.21 853 25.19 15.4 59.8 52 5.8 42.4 15.47 0.609
10:26 1023 30.21 853 25.19 15.2 59.4 54 6 42.7 15.27 0.601
10:27 1023 30.21 853 25.19 15.1 59.1 53 5.7 42.3 15.22 0.599
10:28 1023 30.21 853 25.19 15 59.1 52 5.4 41.7 15.18 0.598
10:29 1023 30.21 853 25.19 15 58.9 59 7.2 44.9 15.09 0.594
10:30 1023 30.21 853 25.19 15 59 52 5.4 41.8 15.24 0.6
10:31 1023 30.21 853 25.19 15.2 59.4 58 7 44.7 15.43 0.607
10:32 1023 30.21 852 25.16 15.4 59.7 56 6.7 44.1 15.65 0.616
10:33 1023 30.21 852 25.16 15.6 60.1 57 7.2 45 15.94 0.628
10:34 1023 30.21 852 25.16 15.9 60.6 54 6.8 44.2 16.26 0.64
10:35 1023 30.21 852 25.16 16.2 61.2 55 7.3 45.1 16.43 0.647
10:36 1023 30.21 853 25.19 16.3 61.4 47 5.2 41.3 16.52 0.65
10:37 1023 30.21 852 25.16 16.3 61.4 52 6.6 43.9 16.39 0.645
10:38 1023 30.21 852 25.16 16.3 61.4 47 5.1 41.2 16.21 0.638
10:39 1023 30.21 852 25.16 16.1 61 51 6.1 43 15.95 0.628
10:40 1023 30.21 852 25.16 16 60.8 51 5.9 42.7 15.99 0.63
10:41 1023 30.21 852 25.16 16 60.8 47 4.9 40.7 16.2 0.638
10:42 1023 30.21 852 25.16 16 60.8 46 4.6 40.2 16.29 0.641
10:43 1023 30.21 852 25.16 16.1 60.9 52 6.4 43.5 16.38 0.645
10:44 1023 30.21 852 25.16 16.2 61.1 50 5.8 42.5 16.41 0.646
10:45 1023 30.21 852 25.16 16 60.9 55 7 44.6 16.11 0.634
10:46 1023 30.21 852 25.16 15.9 60.7 53 6.5 43.7 15.99 0.63
10:47 1023 30.21 852 25.16 15.8 60.5 50 5.6 42 15.92 0.627
10:48 1023 30.21 852 25.16 15.8 60.5 51 5.7 42.3 15.84 0.624
10:49 1023 30.21 852 25.16 15.8 60.5 51 6 42.7 15.92 0.627
10:50 1023 30.21 852 25.16 16 60.7 57 7.5 45.5 16.09 0.633
10:51 1023 30.21 852 25.16 16 60.9 57 7.5 45.6 16.16 0.636
10:52 1023 30.21 852 25.16 16.1 60.9 51 6.1 42.9 16.14 0.635
10:53 1023 30.21 852 25.16 16 60.8 50 5.7 42.2 15.98 0.629
10:54 1023 30.21 852 25.16 15.9 60.7 50 5.7 42.2 15.95 0.628
10:55 1023 30.21 852 25.16 15.9 60.6 56 7.3 45.1 16.07 0.633
10:56 1023 30.21 852 25.16 15.8 60.5 54 6.6 43.9 16.17 0.637
10:57 1023 30.21 852 25.16 15.8 60.5 56 7.1 44.8 16.19 0.637
10:58 1023 30.21 852 25.16 15.9 60.6 54 6.8 44.2 16.3 0.642
10:59 1023 30.21 852 25.16 16 60.7 56 7.4 45.3 16.3 0.642
11:00 1023 30.21 852 25.16 16 60.8 49 5.3 41.6 16.38 0.645
11:01 1023 30.21 852 25.16 16.1 61 48 5.2 41.3 16.33 0.643
11:02 1023 30.21 852 25.16 16 60.8 48 5.1 41.2 16.24 0.639
11:03 1023 30.21 852 25.16 15.9 60.7 51 6 42.7 16.21 0.638
11:04 1023 30.21 852 25.16 16 60.7 49 5.5 41.9 16.3 0.642
11:05 1023 30.21 852 25.16 16 60.8 49 5.3 41.6 16.35 0.644
11:06 1023 30.21 852 25.16 16 60.8 57 7.6 45.6 16.3 0.642
11:07 1023 30.21 852 25.16 16.1 60.9 52 6.2 43.2 16.41 0.646
11:08 1023 30.21 852 25.16 16 60.8 51 6.1 43 16.42 0.646
11:09 1023 30.21 852 25.16 16.1 60.9 50 5.6 42.1 16.47 0.648
11:10 1023 30.21 852 25.16 16.1 61 50 5.8 42.5 16.55 0.652
11:11 1023 30.21 852 25.16 16.2 61.1 54 7 44.7 16.57 0.652
11:12 1023 30.21 852 25.16 16.2 61.2 52 6.4 43.5 16.54 0.651
11:13 1023 30.21 852 25.16 16.2 61.1 46 4.7 40.5 16.51 0.65
11:14 1023 30.21 852 25.16 16.2 61.1 53 6.7 44 16.51 0.65
11:15 1023 30.21 852 25.16 16.2 61.2 45 4.5 40 16.62 0.654
11:16 1023 30.21 852 25.16 16.3 61.3 48 5.3 41.5 16.7 0.657
11:17 1023 30.21 852 25.16 16.5 61.6 53 6.9 44.3 16.89 0.665
11:18 1023 30.21 852 25.16 16.6 61.9 50 6.3 43.4 17.07 0.672
11:19 1023 30.21 852 25.16 16.7 62 49 5.9 42.7 17.1 0.673
11:20 1023 30.21 852 25.16 16.6 61.8 49 5.9 42.6 17.01 0.67
11:21 1023 30.21 852 25.16 16.5 61.7 50 6.1 43.1 16.97 0.668
11:22 1023 30.21 852 25.16 16.4 61.5 53 6.9 44.4 16.85 0.663
11:23 1023 30.21 852 25.16 16.2 61.2 52 6.3 43.4 16.68 0.657
11:24 1023 30.21 852 25.16 16.2 61.2 57 7.9 46.2 16.73 0.659
11:25 1023 30.21 852 25.16 16.4 61.6 57 8.1 46.5 16.91 0.666
11:26 1023 30.21 852 25.16 16.6 61.8 48 5.5 41.9 17.01 0.67
11:27 1023 30.21 852 25.16 16.7 62.1 50 6.4 43.5 16.96 0.668
11:28 1023 30.21 852 25.16 16.7 62.1 47 5.4 41.7 16.86 0.664
11:29 1023 30.21 852 25.16 16.6 62 47 5.4 41.8 16.68 0.657
11:30 1023 30.21 852 25.16 16.6 61.9 49 5.8 42.5 16.73 0.659
11:31 1023 30.21 852 25.16 16.7 62 53 7.2 44.9 16.91 0.666
11:32 1023 30.21 852 25.16 16.9 62.3 51 6.9 44.4 17.1 0.673
11:33 1023 30.21 852 25.16 17 62.6 51 6.8 44.2 17.25 0.679
11:34 1023 30.21 852 25.16 17 62.5 52 7.1 44.8 17.27 0.68
11:35 1023 30.21 852 25.16 17 62.7 50 6.5 43.8 17.37 0.684
11:36 1023 30.21 852 25.16 17.1 62.9 47 5.9 42.5 17.44 0.687
11:37 1023 30.21 852 25.16 17.3 63.1 49 6.6 43.9 17.44 0.687
11:38 1023 30.21 852 25.16 17.2 63 49 6.7 44 17.3 0.681
11:39 1023 30.21 852 25.16 17.1 62.8 48 6.1 43 17.16 0.676
11:40 1023 30.21 852 25.16 17 62.6 45 5 41 17.06 0.672
11:41 1023 30.21 852 25.16 16.9 62.5 50 6.4 43.6 16.99 0.669
11:42 1023 30.21 852 25.16 16.9 62.4 48 6 42.8 17 0.669
11:43 1023 30.21 852 25.16 16.9 62.5 46 5.2 41.4 17.1 0.673
11:44 1023 30.21 852 25.16 17 62.7 44 5 41 17.17 0.676
11:45 1023 30.21 852 25.16 17 62.6 42 4.2 39.6 17.02 0.67
11:46 1023 30.21 852 25.16 17 62.6 44 4.8 40.7 16.93 0.667
11:47 1023 30.21 852 25.16 17 62.7 47 5.7 42.2 17.1 0.673
11:48 1023 30.21 852 25.16 17.1 62.7 47 5.9 42.6 17.31 0.681
11:49 1023 30.21 852 25.16 17.2 63 42 4.4 39.9 17.44 0.687
11:50 1023 30.21 852 25.16 17.3 63.1 43 4.9 40.8 17.38 0.684
11:51 1023 30.21 852 25.16 17.3 63.2 44 5.2 41.4 17.36 0.683
11:52 1023 30.21 852 25.16 17.3 63.1 45 5.3 41.5 17.33 0.682
11:53 1023 30.21 852 25.16 17.3 63.2 50 7.1 44.7 17.42 0.686
11:54 1023 30.21 852 25.16 17.4 63.4 47 6 42.9 17.55 0.691
11:55 1023 30.21 852 25.16 17.4 63.4 48 6.5 43.7 17.47 0.688
11:56 1023 30.21 852 25.16 17.4 63.3 43 4.9 40.8 17.46 0.687
11:57 1023 30.21 852 25.16 17.4 63.4 52 7.5 45.5 17.56 0.691
11:58 1023 30.21 852 25.16 17.6 63.6 43 5.1 41.2 17.7 0.697
11:59 1023 30.21 852 25.16 17.6 63.8 50 7.3 45.2 17.76 0.699
12:00 1023 30.21 852 25.16 17.8 64 47 6.5 43.7 18.02 0.709
12:01 1023 30.21 852 25.16 17.9 64.2 53 8.2 46.7 18.07 0.711
12:02 1023 30.21 852 25.16 17.7 63.9 47 6.2 43.2 17.99 0.708
12:03 1023 30.21 852 25.16 17.6 63.7 46 5.9 42.6 17.92 0.706
12:04 1023 30.21 852 25.16 17.6 63.7 49 6.9 44.5 18.01 0.709
12:05 1023 30.21 852 25.16 17.8 64 44 5.5 41.9 18 0.709
12:06 1023 30.21 852 25.16 17.8 64 51 7.5 45.5 17.9 0.705
12:07 1023 30.21 852 25.16 17.8 64.1 52 7.9 46.1 18.07 0.711
12:08 1023 30.21 852 25.16 18 64.4 51 7.7 45.9 18.19 0.716
12:09 1023 30.21 852 25.16 18.1 64.5 45 6.2 43.2 18.22 0.717
12:10 1023 30.21 852 25.16 18 64.5 51 7.8 46 18.27 0.719
12:11 1023 30.21 852 25.16 18 64.4 50 7.6 45.7 18.27 0.719
12:12 1023 30.21 852 25.16 18 64.3 55 8.9 48.1 18.23 0.718
12:13 1023 30.21 852 25.16 17.9 64.3 44 5.5 42 18.21 0.717
12:14 1023 30.21 852 25.16 17.8 64.1 45 5.8 42.5 18.1 0.713
12:15 1023 30.21 852 25.16 17.7 63.9 49 7 44.7 18.08 0.712
12:16 1023 30.21 852 25.16 17.8 64.1 46 6.1 43 18.09 0.712
12:17 1023 30.21 852 25.16 17.8 64.1 46 6.1 43 18.17 0.715
12:18 1023 30.21 852 25.16 17.8 64 48 6.8 44.2 18.1 0.713
12:19 1023 30.21 852 25.16 17.7 63.9 53 8.2 46.8 18.14 0.714
12:20 1023 30.21 852 25.16 17.8 64.1 51 7.5 45.5 18.3 0.72
12:21 1023 30.21 852 25.16 18 64.4 49 7.3 45.2 18.35 0.722
12:22 1023 30.21 852 25.16 18.1 64.6 46 6.3 43.3 18.32 0.721
12:23 1023 30.21 852 25.16 18.1 64.7 48 7.2 45 18.21 0.717
12:24 1023 30.21 852 25.16 18 64.4 44 5.7 42.3 18.05 0.711
12:25 1023 30.21 852 25.16 17.9 64.3 48 7 44.5 18.03 0.71
12:26 1023 30.21 852 25.16 18 64.4 46 6.3 43.3 18.25 0.719
12:27 1023 30.21 852 25.16 18 64.4 48 7 44.5 18.24 0.718
12:28 1023 30.21 852 25.16 17.9 64.3 48 6.8 44.3 18.16 0.715
12:29 1023 30.21 852 25.16 17.9 64.3 44 5.7 42.3 18.2 0.717
12:30 1023 30.21 852 25.16 17.9 64.3 47 6.7 44 18.19 0.716
12:31 1023 30.21 852 25.16 18 64.4 46 6.3 43.4 18.24 0.718
12:32 1023 30.21 852 25.16 18.1 64.5 43 5.3 41.6 18.19 0.716
12:33 1023 30.21 852 25.16 18 64.5 43 5.3 41.5 18.13 0.714
12:34 1023 30.21 852 25.16 18 64.4 47 6.5 43.7 18.14 0.714
12:35 1023 30.21 852 25.16 18.1 64.6 45 6 42.8 18.19 0.716
12:36 1023 30.21 852 25.16 18.2 64.7 44 5.8 42.5 18.28 0.72
12:37 1023 30.21 852 25.16 18.1 64.7 46 6.3 43.4 18.29 0.72
12:38 1023 30.21 852 25.16 18.2 64.7 43 5.6 42 18.22 0.717
12:39 1023 30.21 852 25.16 18.1 64.6 45 6.3 43.3 18.21 0.717
12:40 1022 30.18 852 25.16 18.1 64.6 42 5.2 41.3 18.33 0.722
12:41 1022 30.18 852 25.16 18 64.4 45 5.9 42.7 18.33 0.722
12:42 1023 30.21 852 25.16 18.1 64.6 42 5.2 41.4 18.49 0.728
12:43 1022 30.18 852 25.16 18.3 64.9 46 6.7 44.1 18.54 0.73
12:44 1022 30.18 852 25.16 18.5 65.2 46 6.8 44.2 18.73 0.737
12:45 1022 30.18 852 25.16 18.6 65.4 44 6.2 43.2 18.79 0.74
12:46 1023 30.21 852 25.16 18.5 65.4 50 8 46.4 18.75 0.738
12:47 1022 30.18 852 25.16 18.5 65.3 47 7.1 44.7 18.79 0.74
12:48 1022 30.18 852 25.16 18.6 65.5 41 5.3 41.6 18.88 0.743
12:49 1022 30.18 852 25.16 18.6 65.5 44 6.3 43.3 18.88 0.743
12:50 1022 30.18 852 25.16 18.7 65.6 41 5.1 41.3 18.85 0.742
12:51 1022 30.18 852 25.16 18.6 65.4 45 6.7 44 18.73 0.737
12:52 1022 30.18 852 25.16 18.6 65.4 49 7.7 45.8 18.75 0.738
12:53 1022 30.18 852 25.16 18.6 65.5 43 6 42.7 18.66 0.735
12:54 1022 30.18 852 25.16 18.6 65.4 44 6.2 43.2 18.58 0.731
12:55 1022 30.18 852 25.16 18.5 65.4 49 7.9 46.2 18.74 0.738
12:56 1022 30.18 852 25.16 18.5 65.4 44 6.3 43.4 18.73 0.737
12:57 1022 30.18 852 25.16 18.5 65.4 42 5.6 42 18.74 0.738
12:58 1022 30.18 852 25.16 18.5 65.4 49 7.6 45.7 18.69 0.736
12:59 1022 30.18 852 25.16 18.6 65.4 44 6.1 42.9 18.75 0.738
13:00 1022 30.18 852 25.16 18.7 65.7 43 6 42.9 18.89 0.744
13:01 1022 30.18 852 25.16 18.8 65.9 47 7.5 45.5 19.03 0.749
13:02 1022 30.18 852 25.16 18.9 65.9 46 7.1 44.8 19.13 0.753
13:03 1022 30.18 852 25.16 18.9 66 40 5.1 41.3 19.15 0.754
13:04 1022 30.18 852 25.16 18.8 65.9 53 9.2 48.6 19.13 0.753
13:05 1022 30.18 852 25.16 18.8 65.9 43 6.1 43 19.2 0.756
13:06 1022 30.18 852 25.16 18.8 65.8 45 6.8 44.3 19.19 0.756
13:07 1022 30.18 852 25.16 18.8 65.9 41 5.4 41.6 19.23 0.757
13:08 1022 30.18 852 25.16 18.8 65.8 39 4.7 40.5 19.15 0.754
13:09 1022 30.18 852 25.16 18.8 65.8 40 5.1 41.2 19.13 0.753
13:10 1022 30.18 852 25.16 18.8 65.9 44 6.3 43.4 19.17 0.755
13:11 1022 30.18 852 25.16 18.9 66.1 43 6.1 42.9 19.23 0.757
13:12 1022 30.18 852 25.16 19 66.2 43 6.2 43.1 19.21 0.756
13:13 1022 30.18 851 25.13 19 66.2 39 4.9 40.9 19.16 0.754
13:14 1022 30.18 851 25.13 19.1 66.3 49 8.3 47 19.33 0.761
13:15 1022 30.18 851 25.13 19.2 66.6 45 7.3 45.1 19.63 0.773
13:16 1022 30.18 851 25.13 19.4 66.9 37 4.6 40.3 19.6 0.772
13:17 1022 30.18 851 25.13 19.3 66.7 40 5.3 41.6 19.41 0.764
13:18 1022 30.18 851 25.13 19.2 66.5 49 8.3 47 19.5 0.768
13:19 1022 30.18 851 25.13 19.3 66.7 42 6.4 43.4 19.63 0.773
13:20 1022 30.18 851 25.13 19.3 66.7 43 6.4 43.5 19.61 0.772
13:21 1022 30.18 851 25.13 19.3 66.8 40 5.5 41.8 19.65 0.774
13:22 1022 30.18 851 25.13 19.2 66.6 45 7.2 44.9 19.56 0.77
13:23 1022 30.18 851 25.13 19.2 66.5 41 5.9 42.6 19.51 0.768
13:24 1022 30.18 851 25.13 19.1 66.4 45 7 44.6 19.45 0.766
13:25 1022 30.18 851 25.13 19.1 66.4 40 5.5 41.9 19.52 0.769
13:26 1022 30.18 851 25.13 19.2 66.5 44 6.9 44.5 19.62 0.772
13:27 1022 30.18 851 25.13 19.2 66.6 39 5.2 41.4 19.67 0.774
13:28 1022 30.18 851 25.13 19.2 66.6 49 8.5 47.3 19.67 0.774
13:29 1022 30.18 851 25.13 19.4 67 46 7.5 45.5 19.96 0.786
13:30 1022 30.18 851 25.13 19.7 67.5 38 5.1 41.1 20.08 0.791
13:31 1022 30.18 851 25.13 19.9 67.7 43 7.1 44.7 20.15 0.793
13:32 1022 30.18 851 25.13 20 68 42 6.9 44.5 20.26 0.798
13:33 1022 30.18 851 25.13 20.1 68.1 36 4.9 40.8 20.27 0.798
13:34 1022 30.18 851 25.13 20 68 44 7.5 45.4 20.24 0.797
13:35 1022 30.18 851 25.13 19.9 67.8 39 5.7 42.3 20.15 0.793
13:36 1022 30.18 851 25.13 19.7 67.5 43 6.9 44.4 20 0.787
13:37 1022 30.18 851 25.13 19.6 67.3 40 5.8 42.5 19.98 0.787
13:38 1022 30.18 851 25.13 19.5 67.2 34 3.6 38.5 19.93 0.785
13:39 1022 30.18 851 25.13 19.4 66.9 34 3.3 37.9 19.81 0.78
13:40 1022 30.18 851 25.13 19.3 66.8 41 5.8 42.5 19.72 0.776
13:41 1022 30.18 851 25.13 19.4 67 41 5.8 42.5 19.89 0.783
13:42 1022 30.18 851 25.13 19.6 67.3 38 5 40.9 19.98 0.787
13:43 1022 30.18 851 25.13 19.6 67.4 34 3.6 38.5 19.84 0.781
13:44 1022 30.18 851 25.13 19.7 67.4 37 4.6 40.2 19.79 0.779
13:45 1022 30.18 851 25.13 19.6 67.4 37 4.8 40.7 19.87 0.782
13:46 1022 30.18 851 25.13 19.8 67.7 40 5.9 42.7 20.07 0.79
13:47 1022 30.18 851 25.13 19.9 67.8 35 4.3 39.8 20.04 0.789
13:48 1022 30.18 851 25.13 19.9 67.7 34 3.6 38.5 19.91 0.784
13:49 1022 30.18 851 25.13 19.7 67.4 36 4.4 39.8 19.85 0.781
13:50 1022 30.18 851 25.13 19.5 67.1 35 4 39.2 19.95 0.785
13:51 1022 30.18 851 25.13 19.6 67.3 44 7.3 45.2 20.15 0.793
13:52 1022 30.18 851 25.13 19.8 67.6 39 5.5 42 20.3 0.799
13:53 1022 30.18 851 25.13 19.8 67.6 36 4.3 39.7 20.28 0.798
13:54 1022 30.18 851 25.13 19.8 67.7 34 3.6 38.6 20.19 0.795
13:55 1022 30.18 851 25.13 19.7 67.4 36 4.3 39.7 20.04 0.789
13:56 1022 30.18 851 25.13 19.6 67.2 36 4.1 39.4 20.02 0.788
13:57 1022 30.18 851 25.13 19.7 67.4 48 8.5 47.4 20.09 0.791
13:58 1022 30.18 851 25.13 19.9 67.7 37 5 41 20.29 0.799
13:59 1022 30.18 851 25.13 20 67.9 36 4.6 40.3 20.24 0.797
14:00 1022 30.18 851 25.13 19.9 67.9 44 7.5 45.5 20.13 0.793
14:01 1022 30.18 851 25.13 20 68 36 4.6 40.2 20.28 0.798
14:02 1022 30.18 851 25.13 20 68 45 7.7 45.9 20.2 0.795
14:03 1022 30.18 851 25.13 20 68.1 42 6.8 44.2 20.3 0.799
14:04 1022 30.18 851 25.13 20 68.1 45 7.8 46 20.31 0.8
14:05 1022 30.18 851 25.13 20 68 39 5.8 42.4 20.28 0.798
14:06 1022 30.18 851 25.13 20 68 38 5.5 41.9 20.28 0.798
14:07 1022 30.18 851 25.13 20 68.1 37 5.1 41.1 20.29 0.799
14:08 1022 30.18 851 25.13 20.1 68.1 36 4.6 40.3 20.24 0.797
14:09 1022 30.18 851 25.13 20 68 42 6.9 44.5 20.2 0.795
14:10 1022 30.18 851 25.13 20 67.9 42 6.9 44.5 20.28 0.798
14:11 1022 30.18 851 25.13 19.9 67.9 38 5.5 41.8 20.22 0.796
14:12 1022 30.18 851 25.13 20 67.9 38 5.2 41.3 20.28 0.798
14:13 1022 30.18 851 25.13 20.1 68.1 34 3.8 38.9 20.46 0.806
14:14 1022 30.18 851 25.13 20 68 35 4.4 39.9 20.41 0.804
14:15 1022 30.18 851 25.13 20 68 37 4.9 40.8 20.34 0.801
14:16 1022 30.18 851 25.13 20 68.1 38 5.4 41.7 20.43 0.804
14:17 1022 30.18 851 25.13 20 68 38 5.3 41.6 20.42 0.804
14:18 1022 30.18 851 25.13 20.1 68.1 35 4.5 40.1 20.52 0.808
14:19 1022 30.18 851 25.13 20.2 68.3 33 3.6 38.5 20.59 0.811
14:20 1022 30.18 851 25.13 20.1 68.1 38 5.3 41.6 20.54 0.809
14:21 1022 30.18 851 25.13 20.2 68.4 35 4.5 40.1 20.69 0.815
14:22 1022 30.18 851 25.13 20.4 68.7 37 5.5 41.9 20.9 0.823
14:23 1022 30.18 851 25.13 20.4 68.8 38 5.8 42.4 20.96 0.825
14:24 1022 30.18 851 25.13 20.4 68.8 35 4.7 40.5 20.92 0.824
14:25 1022 30.18 851 25.13 20.4 68.7 36 5.1 41.1 20.88 0.822
14:26 1022 30.18 851 25.13 20.5 68.9 45 8.2 46.7 21.02 0.828
14:27 1022 30.18 851 25.13 20.7 69.2 43 7.9 46.2 21.15 0.833
14:28 1022 30.18 851 25.13 20.7 69.2 41 7.1 44.8 21.2 0.835
14:29 1022 30.18 851 25.13 20.6 69.1 44 7.9 46.3 21.09 0.83
14:30 1022 30.18 851 25.13 20.5 68.9 33 4 39.3 21.03 0.828
14:31 1022 30.18 851 25.13 20.5 68.9 39 6.2 43.2 20.95 0.825
14:32 1022 30.18 851 25.13 20.4 68.8 41 6.8 44.2 20.88 0.822
14:33 1022 30.18 851 25.13 20.4 68.7 36 5 40.9 20.93 0.824
14:34 1022 30.18 851 25.13 20.4 68.8 42 7.1 44.8 20.97 0.826
14:35 1022 30.18 851 25.13 20.5 68.9 33 3.9 39 20.93 0.824
14:36 1022 30.18 851 25.13 20.4 68.8 40 6.5 43.7 20.91 0.823
14:37 1022 30.18 851 25.13 20.4 68.8 33 3.9 38.9 20.84 0.82
14:38 1022 30.18 851 25.13 20.3 68.5 39 6 42.8 20.73 0.816
14:39 1022 30.18 851 25.13 20.4 68.7 34 4 39.2 20.76 0.817
14:40 1022 30.18 851 25.13 20.5 68.9 36 5.2 41.4 20.8 0.819
14:41 1022 30.18 851 25.13 20.5 68.9 35 4.6 40.3 20.71 0.815
14:42 1022 30.18 851 25.13 20.5 68.9 41 7.1 44.8 20.62 0.812
14:43 1022 30.18 851 25.13 20.5 68.9 40 6.6 43.9 20.66 0.813
14:44 1022 30.18 851 25.13 20.6 69 40 6.7 44 20.85 0.821
14:45 1022 30.18 851 25.13 20.7 69.3 40 6.7 44 20.97 0.826
14:46 1022 30.18 851 25.13 20.8 69.4 37 5.8 42.5 20.95 0.825
14:47 1022 30.18 851 25.13 20.7 69.3 32 3.6 38.5 20.81 0.819
14:48 1022 30.18 851 25.13 20.7 69.3 33 4.2 39.5 20.75 0.817
14:49 1022 30.18 851 25.13 20.7 69.2 39 6.3 43.4 20.75 0.817
14:50 1022 30.18 851 25.13 20.7 69.2 44 8.2 46.7 20.77 0.818
14:51 1022 30.18 851 25.13 20.7 69.2 33 4.2 39.5 20.94 0.824
14:52 1022 30.18 851 25.13 20.7 69.3 41 7.3 45.2 21 0.827
14:53 1022 30.18 851 25.13 20.7 69.2 38 6.2 43.1 20.95 0.825
14:54 1022 30.18 851 25.13 20.6 69.1 38 5.8 42.4 20.93 0.824
14:55 1022 30.18 851 25.13 20.6 69.1 35 4.6 40.3 20.95 0.825
14:56 1022 30.18 851 25.13 20.5 68.9 33 4 39.2 20.89 0.822
14:57 1022 30.18 851 25.13 20.5 68.9 40 6.4 43.6 20.95 0.825
14:58 1022 30.18 851 25.13 20.7 69.2 33 4.1 39.5 20.98 0.826
14:59 1022 30.18 851 25.13 20.7 69.3 33 3.9 39 20.93 0.824
15:00 1022 30.18 851 25.13 20.8 69.4 33 4 39.2 20.96 0.825
15:01 1022 30.18 851 25.13 20.9 69.6 36 5.3 41.5 21.12 0.831
15:02 1022 30.18 851 25.13 20.9 69.7 33 4.3 39.8 21.22 0.835
15:03 1022 30.18 851 25.13 20.9 69.5 38 6.2 43.2 21.14 0.832
15:04 1022 30.18 851 25.13 20.8 69.4 36 5.3 41.5 21.06 0.829
15:05 1022 30.18 851 25.13 20.8 69.4 34 4.6 40.3 21.08 0.83
15:06 1022 30.18 851 25.13 20.9 69.5 31 3.3 37.9 21.19 0.834
15:07 1022 30.18 851 25.13 20.9 69.7 32 3.9 38.9 21.28 0.838
15:08 1022 30.18 851 25.13 20.9 69.7 32 3.8 38.8 21.23 0.836
15:09 1022 30.18 851 25.13 21 69.7 36 5.4 41.7 21.32 0.839
15:10 1022 30.18 851 25.13 21 69.8 38 6.2 43.2 21.35 0.841
15:11 1022 30.18 851 25.13 21 69.8 30 2.7 36.9 21.38 0.842
15:12 1022 30.18 851 25.13 21 69.7 32 3.8 38.8 21.33 0.84
15:13 1022 30.18 851 25.13 21 69.8 33 4.3 39.8 21.49 0.846
15:14 1022 30.18 851 25.13 21.1 70.1 38 6.3 43.3 21.62 0.851
15:15 1022 30.18 851 25.13 21.2 70.2 39 6.8 44.2 21.69 0.854
15:16 1022 30.18 851 25.13 21.3 70.4 41 7.7 45.8 21.82 0.859
15:17 1022 30.18 851 25.13 21.4 70.5 31 3.9 39 21.82 0.859
15:18 1022 30.18 851 25.13 21.4 70.5 38 6.7 44.1 21.76 0.857
15:19 1022 30.18 851 25.13 21.4 70.6 29 2.7 36.8 21.81 0.859
15:20 1022 30.18 851 25.13 21.3 70.3 30 3.1 37.5 21.61 0.851
15:21 1022 30.18 851 25.13 21.2 70.1 36 5.8 42.4 21.53 0.848
15:22 1022 30.18 851 25.13 21.2 70.2 41 7.7 45.8 21.58 0.85
15:23 1022 30.18 851 25.13 21.2 70.2 34 4.8 40.7 21.62 0.851
15:24 1022 30.18 851 25.13 21.2 70.1 35 5.2 41.4 21.56 0.849
15:25 1022 30.18 851 25.13 21.1 69.9 28 1.8 35.2 21.43 0.844
15:26 1022 30.18 851 25.13 20.9 69.7 40 7 44.6 21.27 0.837
15:27 1022 30.18 851 25.13 20.8 69.5 32 3.7 38.6 21.15 0.833
15:28 1022 30.18 851 25.13 20.9 69.5 33 4.2 39.6 21.19 0.834
15:29 1022 30.18 851 25.13 20.9 69.7 32 3.9 39 21.26 0.837
15:30 1022 30.18 851 25.13 20.9 69.6 29 2.2 36 21.26 0.837
15:31 1022 30.18 851 25.13 20.8 69.5 32 3.5 38.3 21.22 0.835
15:32 1022 30.18 851 25.13 20.8 69.5 33 4.4 39.8 21.29 0.838
15:33 1022 30.18 851 25.13 21 69.8 35 5 41 21.45 0.844
15:34 1021 30.15 851 25.13 21.1 69.9 36 5.8 42.4 21.47 0.845
15:35 1021 30.15 851 25.13 21.1 70 38 6.3 43.4 21.54 0.848
15:36 1021 30.15 851 25.13 21.1 70 33 4.5 40.1 21.55 0.848
15:37 1021 30.15 851 25.13 21 69.9 39 6.7 44.1 21.44 0.844
15:38 1021 30.15 851 25.13 21 69.7 33 4.1 39.3 21.36 0.841
15:39 1021 30.15 851 25.13 20.9 69.7 32 3.7 38.7 21.31 0.839
15:40 1021 30.15 851 25.13 21 69.8 33 4.5 40.1 21.4 0.843
15:41 1021 30.15 851 25.13 21 69.8 32 3.7 38.7 21.47 0.845
15:42 1021 30.15 851 25.13 21 69.8 32 3.7 38.7 21.48 0.846
15:43 1021 30.15 851 25.13 21.1 69.9 29 2.6 36.7 21.49 0.846
15:44 1021 30.15 851 25.13 21.1 70 30 3.2 37.7 21.41 0.843
15:45 1021 30.15 851 25.13 21.2 70.1 36 5.8 42.5 21.45 0.844
15:46 1021 30.15 851 25.13 21.2 70.1 31 3.4 38.2 21.42 0.843
15:47 1021 30.15 851 25.13 21.1 70 34 4.6 40.3 21.41 0.843
15:48 1021 30.15 851 25.13 21.1 70 36 5.7 42.2 21.41 0.843
15:49 1021 30.15 851 25.13 21.1 69.9 34 4.8 40.7 21.44 0.844
15:50 1021 30.15 851 25.13 21.1 70.1 35 5.2 41.4 21.44 0.844
15:51 1021 30.15 851 25.13 21.2 70.1 34 4.8 40.6 21.43 0.844
15:52 1021 30.15 851 25.13 21.1 69.9 32 4 39.2 21.42 0.843
15:53 1021 30.15 851 25.13 21.1 69.9 32 3.8 38.8 21.41 0.843
15:54 1021 30.15 851 25.13 21 69.8 34 4.8 40.6 21.33 0.84
15:55 1021 30.15 851 25.13 20.9 69.7 32 3.7 38.7 21.24 0.836
15:56 1021 30.15 851 25.13 20.9 69.7 35 5.1 41.1 21.28 0.838
15:57 1021 30.15 851 25.13 21 69.8 34 4.6 40.2 21.36 0.841
15:58 1021 30.15 850 25.1 21 69.8 30 3 37.3 21.36 0.841
15:59 1021 30.15 850 25.1 21 69.7 32 4 39.1 21.36 0.841
16:00 1021 30.15 850 25.1 21.1 69.9 38 6.4 43.5 21.46 0.845
16:01 1021 30.15 850 25.1 21.2 70.2 37 6 42.9 21.53 0.848
16:02 1021 30.15 850 25.1 21.3 70.3 29 2.8 37.1 21.59 0.85
16:03 1021 30.15 850 25.1 21.3 70.3 34 4.9 40.8 21.54 0.848
16:04 1021 30.15 850 25.1 21.3 70.3 35 5.4 41.7 21.56 0.849
16:05 1021 30.15 850 25.1 21.3 70.3 29 2.8 37 21.58 0.85
16:06 1021 30.15 850 25.1 21.2 70.2 37 6.1 42.9 21.48 0.846
16:07 1021 30.15 850 25.1 21.3 70.3 41 7.5 45.5 21.64 0.852
16:08 1021 30.15 850 25.1 21.5 70.6 38 6.9 44.4 21.8 0.858
16:09 1021 30.15 850 25.1 21.5 70.6 34 5.2 41.4 21.75 0.856
16:10 1021 30.15 850 25.1 21.5 70.7 34 5.2 41.4 21.84 0.86
16:11 1021 30.15 850 25.1 21.6 70.8 31 3.8 38.9 21.83 0.859
16:12 1021 30.15 850 25.1 21.4 70.5 32 4.1 39.4 21.68 0.854
16:13 1021 30.15 850 25.1 21.4 70.6 41 7.8 46 21.76 0.857
16:14 1021 30.15 850 25.1 21.6 71 36 6.1 43 21.99 0.866
16:15 1021 30.15 850 25.1 21.7 71 33 5.1 41.1 21.97 0.865
16:16 1021 30.15 850 25.1 21.7 71 37 6.7 44 21.94 0.864
16:17 1021 30.15 850 25.1 21.7 71 35 5.9 42.6 21.94 0.864
16:18 1021 30.15 850 25.1 21.7 71 32 4.6 40.3 21.92 0.863
16:19 1021 30.15 850 25.1 21.7 71 31 4.1 39.3 21.87 0.861
16:20 1021 30.15 850 25.1 21.7 71 31 3.9 39 21.84 0.86
16:21 1021 30.15 850 25.1 21.6 70.9 34 5.2 41.4 21.84 0.86
16:22 1021 30.15 850 25.1 21.5 70.8 32 4.3 39.7 21.8 0.858
16:23 1021 30.15 850 25.1 21.4 70.6 33 4.8 40.6 21.72 0.855
16:24 1021 30.15 850 25.1 21.4 70.5 32 4.2 39.6 21.73 0.856
16:25 1021 30.15 850 25.1 21.4 70.6 31 3.7 38.6 21.65 0.852
16:26 1021 30.15 850 25.1 21.5 70.7 32 4.4 40 21.7 0.854
16:27 1021 30.15 850 25.1 21.6 70.8 32 4.4 40 21.71 0.855
16:28 1021 30.15 850 25.1 21.6 70.9 29 2.9 37.2 21.76 0.857
16:29 1021 30.15 850 25.1 21.6 70.9 37 6.5 43.7 21.8 0.858
16:30 1021 30.15 850 25.1 21.6 71 35 5.8 42.4 21.91 0.863
16:31 1021 30.15 850 25.1 21.7 71.1 31 4 39.2 21.89 0.862
16:32 1021 30.15 850 25.1 21.8 71.2 32 4.6 40.2 21.88 0.861
16:33 1021 30.15 850 25.1 21.8 71.3 40 7.9 46.2 22 0.866
16:34 1021 30.15 850 25.1 21.9 71.5 34 5.4 41.7 22.22 0.875
16:35 1021 30.15 850 25.1 22 71.5 37 6.8 44.2 22.19 0.874
16:36 1021 30.15 850 25.1 21.9 71.4 30 3.8 38.8 22.12 0.871
16:37 1021 30.15 850 25.1 21.8 71.2 31 4 39.1 22.08 0.869
16:38 1021 30.15 850 25.1 21.7 71 31 4.1 39.4 22.02 0.867
16:39 1021 30.15 850 25.1 21.7 71.1 34 5.3 41.6 22.03 0.867
16:40 1021 30.15 850 25.1 21.8 71.3 31 4.3 39.8 22.13 0.871
16:41 1021 30.15 850 25.1 21.8 71.2 35 5.9 42.6 22.12 0.871
16:42 1021 30.15 850 25.1 21.7 71.1 36 6.3 43.3 22.1 0.87
16:43 1021 30.15 850 25.1 21.8 71.2 35 5.6 42.1 22.06 0.869
16:44 1021 30.15 850 25.1 21.8 71.2 36 6.1 43 22.07 0.869
16:45 1021 30.15 850 25.1 21.8 71.2 32 4.7 40.4 22.09 0.87
16:46 1021 30.15 850 25.1 21.8 71.2 31 4 39.2 22.06 0.869
16:47 1021 30.15 850 25.1 21.8 71.2 32 4.6 40.3 22.12 0.871
16:48 1021 30.15 850 25.1 21.8 71.3 37 6.6 43.8 22.21 0.874
16:49 1021 30.15 850 25.1 21.9 71.4 32 4.4 40 22.23 0.875
16:50 1021 30.15 850 25.1 21.8 71.3 33 4.9 40.8 22.17 0.873
16:51 1021 30.15 850 25.1 21.7 71.1 32 4.6 40.4 22.09 0.87
16:52 1021 30.15 850 25.1 21.7 71.1 37 6.8 44.2 22.06 0.869
16:53 1021 30.15 850 25.1 21.8 71.3 35 5.8 42.5 22.14 0.872
16:54 1021 30.15 850 25.1 21.9 71.3 32 4.6 40.3 22.14 0.872
16:55 1021 30.15 850 25.1 21.8 71.3 32 4.6 40.3 22.16 0.872
16:56 1021 30.15 850 25.1 21.9 71.4 30 3.9 39 22.1 0.87
16:57 1021 30.15 850 25.1 21.9 71.4 29 3 37.4 22.1 0.87
16:58 1021 30.15 850 25.1 21.9 71.3 32 4.5 40 22.08 0.869
16:59 1021 30.15 850 25.1 21.9 71.3 30 3.5 38.3 22.06 0.869
17:00 1021 30.15 850 25.1 21.8 71.3 30 3.8 38.8 21.95 0.864
17:01 1021 30.15 850 25.1 21.8 71.3 30 3.9 39 21.93 0.863
17:02 1021 30.15 850 25.1 21.9 71.4 32 4.7 40.5 22.03 0.867
17:03 1021 30.15 850 25.1 21.9 71.5 31 4.3 39.7 22.13 0.871
17:04 1021 30.15 850 25.1 22 71.5 27 2.3 36.2 22.06 0.869
17:05 1021 30.15 850 25.1 21.9 71.5 32 4.6 40.4 21.98 0.865
17:06 1021 30.15 850 25.1 21.8 71.2 32 4.7 40.4 21.93 0.863
17:07 1021 30.15 850 25.1 21.8 71.3 33 5 41 22.06 0.869
17:08 1021 30.15 850 25.1 21.9 71.3 34 5.6 42.1 22.13 0.871
17:09 1021 30.15 850 25.1 21.8 71.3 30 3.5 38.3 22.11 0.87
17:10 1021 30.15 850 25.1 21.8 71.3 30 3.6 38.5 22.06 0.869
17:11 1021 30.15 850 25.1 21.8 71.3 36 6.2 43.2 22.04 0.868
17:12 1021 30.15 850 25.1 21.9 71.5 29 3.5 38.2 22.07 0.869
17:13 1021 30.15 850 25.1 22 71.5 32 4.9 40.9 22.14 0.872
17:14 1021 30.15 850 25.1 22.1 71.7 33 5.4 41.7 22.19 0.874
17:15 1021 30.15 850 25.1 22.1 71.8 33 5.3 41.5 22.22 0.875
17:16 1021 30.15 850 25.1 22.1 71.8 31 4.6 40.2 22.14 0.872
17:17 1021 30.15 850 25.1 22.2 71.9 34 5.9 42.6 22.21 0.874
17:18 1021 30.15 850 25.1 22.2 72 31 4.3 39.8 22.23 0.875
17:19 1021 30.15 850 25.1 22.2 71.9 35 6.1 43.1 22.22 0.875
17:20 1021 30.15 850 25.1 22.1 71.8 28 3 37.5 22.18 0.873
17:21 1021 30.15 850 25.1 22.1 71.8 31 4.6 40.3 22.19 0.874
17:22 1021 30.15 850 25.1 22.2 71.9 31 4.3 39.8 22.22 0.875
17:23 1021 30.15 850 25.1 22.2 71.9 30 4 39.2 22.3 0.878
17:24 1021 30.15 850 25.1 22.1 71.8 33 5.2 41.4 22.34 0.88
17:25 1021 30.15 850 25.1 22.1 71.8 35 6 42.9 22.46 0.884
17:26 1021 30.15 850 25.1 22.2 72 34 5.6 42.1 22.54 0.887
17:27 1021 30.15 850 25.1 22.3 72.1 39 8 46.3 22.52 0.887
17:28 1021 30.15 850 25.1 22.4 72.3 32 5.2 41.3 22.51 0.886
17:29 1021 30.15 850 25.1 22.3 72.1 32 4.8 40.7 22.46 0.884
17:30 1021 30.15 850 25.1 22.3 72.1 34 5.9 42.6 22.35 0.88
17:31 1021 30.15 850 25.1 22.2 72 29 3.6 38.4 22.32 0.879
17:32 1021 30.15 850 25.1 22.2 72 34 5.7 42.2 22.34 0.88
17:33 1021 30.15 850 25.1 22.3 72.1 31 4.4 39.8 22.41 0.882
17:34 1021 30.15 850 25.1 22.3 72.1 30 4.2 39.5 22.39 0.881
17:35 1021 30.15 850 25.1 22.3 72.1 34 6 42.8 22.34 0.88
17:36 1021 30.15 850 25.1 22.3 72.1 31 4.5 40.1 22.41 0.882
17:37 1021 30.15 850 25.1 22.2 71.9 31 4.2 39.6 22.36 0.88
17:38 1021 30.15 850 25.1 22.1 71.8 34 5.8 42.4 22.46 0.884
17:39 1021 30.15 850 25.1 22.2 71.9 35 6.4 43.4 22.54 0.887
17:40 1021 30.15 850 25.1 22.3 72.2 34 5.8 42.4 22.6 0.89
17:41 1021 30.15 850 25.1 22.4 72.4 40 8.3 46.9 22.68 0.893
17:42 1021 30.15 850 25.1 22.6 72.6 32 5.1 41.3 22.82 0.898
17:43 1021 30.15 850 25.1 22.6 72.7 30 4.5 40 22.69 0.893
17:44 1021 30.15 850 25.1 22.5 72.5 28 3.4 38.1 22.69 0.893
17:45 1021 30.15 850 25.1 22.6 72.6 30 4.2 39.5 22.73 0.895
17:46 1021 30.15 850 25.1 22.5 72.5 31 4.7 40.5 22.78 0.897
17:47 1021 30.15 850 25.1 22.6 72.7 35 6.7 44 22.82 0.898
17:48 1021 30.15 850 25.1 22.7 72.9 34 6.2 43.1 22.84 0.899
17:49 1021 30.15 850 25.1 22.7 72.9 32 5.2 41.3 22.72 0.894
17:50 1021 30.15 850 25.1 22.6 72.7 33 5.9 42.6 22.7 0.894
17:51 1021 30.15 850 25.1 22.6 72.8 32 5.4 41.7 22.72 0.894
17:52 1021 30.15 850 25.1 22.7 72.8 29 3.8 38.9 22.77 0.896
17:53 1021 30.15 850 25.1 22.7 72.9 31 4.9 40.8 22.72 0.894
17:54 1021 30.15 850 25.1 22.6 72.7 31 4.9 40.8 22.66 0.892
17:55 1021 30.15 850 25.1 22.5 72.4 29 3.8 38.8 22.61 0.89
17:56 1021 30.15 850 25.1 22.3 72.2 29 3.6 38.4 22.52 0.887
17:57 1021 30.15 850 25.1 22.3 72.1 32 5 41 22.52 0.887
17:58 1021 30.15 850 25.1 22.3 72.1 38 7.6 45.8 22.54 0.887
17:59 1021 30.15 850 25.1 22.3 72.1 34 5.9 42.6 22.57 0.889
18:00 1021 30.15 850 25.1 22.3 72.2 31 4.5 40.1 22.55 0.888
18:01 1021 30.15 850 25.1 22.3 72.1 36 6.6 43.9 22.57 0.889
18:02 1021 30.15 850 25.1 22.3 72.1 37 7.2 45 22.59 0.889
18:03 1021 30.15 850 25.1 22.2 72 33 5.2 41.4 22.48 0.885
18:04 1021 30.15 850 25.1 22.2 71.9 30 4.2 39.6 22.39 0.881
18:05 1021 30.15 850 25.1 22.2 71.9 31 4.3 39.7 22.32 0.879
18:06 1020 30.12 850 25.1 22.2 72 33 5.6 42 22.34 0.88
18:07 1020 30.12 850 25.1 22.3 72.1 34 5.7 42.3 22.43 0.883
18:08 1020 30.12 850 25.1 22.4 72.3 34 5.9 42.6 22.56 0.888
18:09 1020 30.12 850 25.1 22.4 72.3 33 5.5 41.8 22.59 0.889
18:10 1020 30.12 850 25.1 22.3 72.2 35 6.3 43.3 22.6 0.89
18:11 1020 30.12 850 25.1 22.4 72.2 35 6.4 43.5 22.63 0.891
18:12 1020 30.12 850 25.1 22.3 72.2 31 4.8 40.6 22.6 0.89
18:13 1020 30.12 850 25.1 22.3 72.1 33 5.4 41.7 22.52 0.887
18:14 1020 30.12 850 25.1 22.2 71.9 30 4.1 39.3 22.43 0.883
18:15 1020 30.12 850 25.1 22.1 71.8 32 4.7 40.5 22.48 0.885
18:16 1020 30.12 850 25.1 22.1 71.8 32 4.7 40.5 22.55 0.888
18:17 1020 30.12 850 25.1 22.1 71.8 31 4.4 39.8 22.59 0.889
18:18 1020 30.12 850 25.1 22.2 72 30 4.1 39.4 22.54 0.887
18:19 1020 30.12 850 25.1 22.4 72.2 30 4.3 39.7 22.65 0.892
18:20 1020 30.12 850 25.1 22.5 72.5 30 4.5 40 22.72 0.894
18:21 1020 30.12 850 25.1 22.6 72.6 27 2.7 36.9 22.72 0.894
18:22 1020 30.12 850 25.1 22.6 72.6 33 5.8 42.5 22.71 0.894
18:23 1020 30.12 850 25.1 22.5 72.6 35 6.6 43.8 22.81 0.898
18:24 1020 30.12 850 25.1 22.5 72.5 33 5.5 41.8 22.87 0.9
18:25 1020 30.12 850 25.1 22.4 72.4 32 5.3 41.6 22.87 0.9
18:26 1020 30.12 850 25.1 22.5 72.6 38 7.7 45.9 22.95 0.904
18:27 1020 30.12 850 25.1 22.6 72.6 41 8.8 47.9 23 0.906
18:28 1020 30.12 850 25.1 22.7 72.9 34 6.1 42.9 23.1 0.909
18:29 1020 30.12 850 25.1 22.8 73 30 4.6 40.3 23.13 0.911
18:30 1020 30.12 850 25.1 22.7 72.9 32 5.3 41.6 23.02 0.906
18:31 1020 30.12 850 25.1 22.6 72.7 36 7 44.6 23 0.906
18:32 1020 30.12 850 25.1 22.6 72.7 32 5.1 41.1 22.98 0.905
18:33 1020 30.12 850 25.1 22.6 72.7 33 5.6 42 22.99 0.905
18:34 1020 30.12 850 25.1 22.7 72.8 30 4.6 40.3 23.1 0.909
18:35 1020 30.12 850 25.1 22.9 73.1 31 5.2 41.3 23.21 0.914
18:36 1020 30.12 850 25.1 22.9 73.1 37 7.6 45.7 23.35 0.919
18:37 1020 30.12 850 25.1 22.8 73.1 36 7.2 44.9 23.38 0.92
18:38 1020 30.12 850 25.1 22.7 72.9 37 7.6 45.7 23.29 0.917
18:39 1020 30.12 850 25.1 22.6 72.6 35 6.3 43.4 23.06 0.908
18:40 1020 30.12 849 25.07 22.4 72.4 39 8.2 46.7 22.94 0.903
18:41 1020 30.12 850 25.1 22.4 72.4 40 8.3 46.9 22.96 0.904
18:42 1020 30.12 850 25.1 22.5 72.5 39 7.9 46.2 23.05 0.907
18:43 1020 30.12 849 25.07 22.5 72.6 39 8.1 46.6 23.04 0.907
18:44 1020 30.12 849 25.07 22.6 72.7 33 5.7 42.3 23.07 0.908
18:45 1020 30.12 849 25.07 22.6 72.7 37 7.5 45.4 23.07 0.908
18:46 1020 30.12 849 25.07 22.7 72.8 36 6.9 44.4 23.03 0.907
18:47 1020 30.12 849 25.07 22.7 72.9 34 6.2 43.2 22.89 0.901
18:48 1020 30.12 849 25.07 22.6 72.6 33 5.7 42.3 22.68 0.893
18:49 1020 30.12 849 25.07 22.4 72.2 35 6.5 43.8 22.44 0.883
18:50 1020 30.12 849 25.07 22.1 71.8 36 6.5 43.7 22.24 0.876
18:51 1020 30.12 849 25.07 21.9 71.4 35 5.9 42.6 22.08 0.869
18:52 1020 30.12 849 25.07 21.9 71.4 36 6.2 43.1 22.08 0.869
18:53 1020 30.12 849 25.07 21.9 71.4 30 3.8 38.8 22.1 0.87
18:54 1020 30.12 849 25.07 21.9 71.5 34 5.7 42.3 22.13 0.871
18:55 1020 30.12 849 25.07 22 71.6 37 6.8 44.3 22.2 0.874
18:56 1020 30.12 849 25.07 22.1 71.7 36 6.5 43.6 22.38 0.881
18:57 1020 30.12 849 25.07 22.2 72 33 5.3 41.5 22.51 0.886
18:58 1020 30.12 849 25.07 22.3 72.2 33 5.6 42.1 22.6 0.89
18:59 1020 30.12 849 25.07 22.3 72.2 30 4.2 39.5 22.51 0.886
19:00 1020 30.12 849 25.07 22.3 72.2 33 5.6 42.1 22.5 0.886
19:01 1020 30.12 849 25.07 22.4 72.4 42 9.1 48.3 22.65 0.892
19:02 1020 30.12 849 25.07 22.6 72.6 31 5 41 22.72 0.894
19:03 1020 30.12 849 25.07 22.7 72.8 27 3.2 37.7 22.69 0.893
19:04 1020 30.12 849 25.07 22.7 72.8 29 3.9 39.1 22.66 0.892
19:05 1020 30.12 849 25.07 22.7 72.9 27 2.9 37.2 22.71 0.894
19:06 1020 30.12 849 25.07 22.8 73 28 3.7 38.6 22.9 0.902
19:07 1020 30.12 849 25.07 23 73.3 31 5 41 23.13 0.911
19:08 1020 30.12 849 25.07 23.1 73.7 32 5.7 42.2 23.4 0.921
19:09 1020 30.12 849 25.07 23.2 73.7 30 5.1 41.1 23.6 0.929
19:10 1020 30.12 849 25.07 23.2 73.8 29 4.5 40 23.67 0.932
19:11 1020 30.12 849 25.07 23.3 73.9 33 6.2 43.1 23.7 0.933
19:12 1020 30.12 849 25.07 23.3 74 37 8.2 46.7 23.82 0.938
19:13 1020 30.12 849 25.07 23.2 73.8 28 3.7 38.7 23.7 0.933
19:14 1020 30.12 849 25.07 23.1 73.5 29 4.2 39.5 23.52 0.926
19:15 1020 30.12 849 25.07 22.9 73.2 27 2.9 37.3 23.35 0.919
19:16 1020 30.12 849 25.07 22.8 73 32 5.6 42.2 23.19 0.913
19:17 1020 30.12 849 25.07 22.6 72.7 29 3.9 39 23.11 0.91
19:18 1020 30.12 849 25.07 22.4 72.4 35 6.6 43.9 22.87 0.9
19:19 1020 30.12 849 25.07 22.3 72.1 38 7.5 45.5 22.77 0.896
19:20 1020 30.12 849 25.07 22.1 71.7 39 7.7 45.8 22.57 0.889
19:21 1020 30.12 849 25.07 21.8 71.3 42 8.7 47.6 22.41 0.882
19:22 1020 30.12 849 25.07 21.7 71 44 9 48.1 22.26 0.876
19:23 1020 30.12 849 25.07 21.5 70.8 46 9.6 49.2 22.18 0.873
19:24 1020 30.12 849 25.07 21.4 70.6 43 8.5 47.3 21.96 0.865
19:25 1020 30.12 849 25.07 21.3 70.3 42 8.1 46.6 21.76 0.857
19:26 1020 30.12 849 25.07 21.2 70.1 43 8.4 47.2 21.63 0.852
19:27 1020 30.12 849 25.07 21.1 69.9 41 7.6 45.7 21.51 0.847
19:28 1020 30.12 849 25.07 21 69.8 40 7 44.6 21.45 0.844
19:29 1020 30.12 849 25.07 21 69.8 45 8.7 47.7 21.45 0.844
19:30 1020 30.12 849 25.07 20.9 69.7 43 8 46.4 21.41 0.843
19:31 1020 30.12 849 25.07 20.9 69.7 38 6.1 42.9 21.36 0.841
19:32 1020 30.12 849 25.07 20.9 69.6 40 6.9 44.5 21.32 0.839
19:33 1020 30.12 849 25.07 20.9 69.6 39 6.6 43.8 21.32 0.839
19:34 1020 30.12 849 25.07 20.9 69.7 38 6.2 43.2 21.31 0.839
19:35 1020 30.12 849 25.07 21 69.7 36 5.4 41.8 21.39 0.842
19:36 1020 30.12 849 25.07 21 69.8 37 5.8 42.4 21.41 0.843
19:37 1020 30.12 849 25.07 21.1 69.9 36 5.4 41.8 21.41 0.843
19:38 1020 30.12 849 25.07 21.1 70 32 3.8 38.9 21.49 0.846
19:39 1020 30.12 849 25.07 21.2 70.1 33 4.3 39.8 21.58 0.85
19:40 1020 30.12 849 25.07 21.3 70.3 35 5.6 42 21.71 0.855
19:41 1020 30.12 849 25.07 21.3 70.4 37 6.3 43.3 21.77 0.857
19:42 1020 30.12 849 25.07 21.3 70.4 38 6.8 44.2 21.81 0.859
19:43 1020 30.12 849 25.07 21.4 70.5 39 7 44.6 21.85 0.86
19:44 1020 30.12 849 25.07 21.4 70.6 44 8.7 47.7 21.9 0.862
19:45 1020 30.12 849 25.07 21.5 70.6 44 8.9 48 21.98 0.865
19:46 1020 30.12 849 25.07 21.5 70.7 37 6.5 43.6 22.11 0.87
19:47 1020 30.12 849 25.07 21.6 71 35 5.6 42 22.09 0.87
19:48 1020 30.12 849 25.07 21.7 71 33 5.1 41.1 22.12 0.871
19:49 1020 30.12 849 25.07 21.7 71.1 34 5.1 41.3 22.2 0.874
19:50 1020 30.12 849 25.07 21.7 71 32 4.6 40.3 22.25 0.876
19:51 1020 30.12 849 25.07 21.6 70.8 32 4.5 40.1 22.2 0.874
19:52 1020 30.12 849 25.07 21.5 70.8 33 4.9 40.8 22.21 0.874
19:53 1020 30.12 849 25.07 21.5 70.7 37 6.2 43.2 22.17 0.873
19:54 1020 30.12 849 25.07 21.4 70.5 39 7.1 44.8 22.2 0.874
19:55 1020 30.12 849 25.07 21.3 70.3 44 8.6 47.4 22.19 0.874
19:56 1020 30.12 849 25.07 21.1 70 49 10.2 50.4 22.02 0.867
19:57 1020 30.12 849 25.07 21 69.7 53 11.2 52.1 21.81 0.859
19:58 1020 30.12 849 25.07 20.7 69.3 50 10.1 50.3 21.5 0.846
19:59 1020 30.12 849 25.07 20.5 68.9 50 9.9 49.8 21.2 0.835
20:00 1020 30.12 849 25.07 20.3 68.5 49 9.4 48.9 20.83 0.82
20:01 1020 30.12 849 25.07 20.1 68.1 49 9.2 48.6 20.6 0.811
20:02 1020 30.12 849 25.07 20 67.9 47 8.6 47.4 20.42 0.804
20:03 1020 30.12 849 25.07 19.9 67.8 48 8.7 47.7 20.37 0.802
20:04 1020 30.12 849 25.07 19.9 67.7 51 9.5 49.1 20.28 0.798
20:05 1020 30.12 849 25.07 19.7 67.4 54 10.3 50.6 20.13 0.793
20:06 1020 30.12 849 25.07 19.5 67.1 54 10 50 19.93 0.785
20:07 1020 30.12 849 25.07 19.3 66.7 53 9.7 49.4 19.72 0.776
20:08 1020 30.12 849 25.07 19.1 66.3 54 9.8 49.6 19.51 0.768
20:09 1020 30.12 849 25.07 18.9 66 56 9.9 49.8 19.31 0.76
20:10 1020 30.12 849 25.07 18.6 65.5 56 9.7 49.5 19.04 0.75
20:11 1020 30.12 849 25.07 18.4 65.1 56 9.4 49 18.79 0.74
20:12 1020 30.12 849 25.07 18.2 64.7 56 9.3 48.7 18.57 0.731
20:13 1020 30.12 849 25.07 18 64.4 57 9.6 49.2 18.38 0.724
20:14 1020 30.12 849 25.07 17.8 64 58 9.5 49.1 18.23 0.718
20:15 1020 30.12 849 25.07 17.6 63.7 60 9.7 49.5 17.99 0.708
20:16 1020 30.12 849 25.07 17.4 63.4 60 9.7 49.5 17.8 0.701
20:17 1020 30.12 849 25.07 17.2 63 59 9.3 48.8 17.6 0.693
20:18 1020 30.12 849 25.07 17.1 62.8 59 9.3 48.7 17.51 0.689
20:19 1020 30.12 849 25.07 17 62.7 60 9.2 48.6 17.42 0.686
20:20 1020 30.12 849 25.07 17 62.6 60 9.2 48.6 17.38 0.684
20:21 1020 30.12 849 25.07 17 62.6 60 9.1 48.5 17.36 0.683
20:22 1020 30.12 849 25.07 17 62.5 59 9.1 48.3 17.33 0.682
20:23 1020 30.12 849 25.07 17 62.6 60 9.2 48.6 17.32 0.682
20:24 1020 30.12 849 25.07 17 62.5 60 9.3 48.7 17.3 0.681
20:25 1020 30.12 849 25.07 17 62.5 60 9.3 48.8 17.29 0.681
20:26 1020 30.12 849 25.07 16.9 62.5 61 9.3 48.8 17.26 0.68
20:27 1020 30.12 849 25.07 16.9 62.4 61 9.4 49 17.23 0.678
20:28 1020 30.12 849 25.07 16.9 62.3 60 9.2 48.5 17.13 0.674
20:29 1020 30.12 849 25.07 16.9 62.4 61 9.3 48.8 17.17 0.676
20:30 1020 30.12 849 25.07 16.9 62.4 61 9.4 48.9 17.17 0.676
20:31 1020 30.12 849 25.07 16.8 62.3 62 9.6 49.2 17.17 0.676
20:32 1020 30.12 849 25.07 16.7 62.1 63 9.7 49.4 17.05 0.671
20:33 1020 30.12 849 25.07 16.5 61.7 63 9.5 49.1 16.84 0.663
20:34 1020 30.12 849 25.07 16.4 61.5 63 9.3 48.8 16.67 0.656
20:35 1020 30.12 849 25.07 16.2 61.2 62 9.1 48.4 16.54 0.651
20:36 1020 30.12 849 25.07 16.2 61.2 64 9.5 49.1 16.5 0.65
20:37 1020 30.12 849 25.07 16 60.9 65 9.5 49.1 16.33 0.643
20:38 1020 30.12 849 25.07 15.8 60.4 64 9.1 48.4 16.09 0.633
20:39 1020 30.12 849 25.07 15.6 60.1 63 8.7 47.7 15.94 0.628
20:40 1020 30.12 849 25.07 15.5 59.9 63 8.6 47.4 15.82 0.623
20:41 1020 30.12 849 25.07 15.5 59.9 62 8.3 46.9 15.73 0.619
20:42 1020 30.12 849 25.07 15.5 59.9 62 8.2 46.8 15.77 0.621
20:43 1020 30.12 849 25.07 15.5 59.9 62 8.2 46.8 15.77 0.621
20:44 1020 30.12 849 25.07 15.5 59.9 61 8.2 46.8 15.73 0.619
20:45 1020 30.12 849 25.07 15.5 59.8 61 8 46.4 15.73 0.619
20:46 1020 30.12 849 25.07 15.5 59.8 61 8.1 46.6 15.75 0.62
20:47 1020 30.12 849 25.07 15.4 59.6 63 8.4 47.2 15.63 0.615
20:48 1020 30.12 849 25.07 15.1 59.1 62 8 46.5 15.46 0.609
20:49 1020 30.12 849 25.07 14.9 58.8 63 8 46.3 15.25 0.6
20:50 1020 30.12 849 25.07 14.9 58.8 63 8 46.4 15.2 0.598
20:51 1020 30.12 849 25.07 14.8 58.6 64 8.2 46.8 15.17 0.597
20:52 1020 30.12 849 25.07 14.6 58.3 66 8.3 47 15.02 0.591
20:53 1020 30.12 849 25.07 14.3 57.8 67 8.4 47 14.84 0.584
20:54 1020 30.12 849 25.07 14.1 57.4 68 8.4 47.1 14.57 0.574
20:55 1020 30.12 849 25.07 13.8 56.9 70 8.4 47.2 14.35 0.565
20:56 1020 30.12 849 25.07 13.6 56.4 71 8.5 47.4 14.07 0.554
20:57 1020 30.12 849 25.07 13.3 56 73 8.6 47.5 13.88 0.546
20:58 1020 30.12 849 25.07 13.1 55.6 74 8.6 47.6 13.6 0.535
20:59 1020 30.12 849 25.07 12.9 55.2 75 8.6 47.4 13.43 0.529
21:00 1020 30.12 849 25.07 12.9 55.2 75 8.7 47.6 13.36 0.526
21:01 1020 30.12 849 25.07 12.9 55.1 76 8.7 47.7 13.3 0.524
21:02 1020 30.12 849 25.07 12.8 55.1 77 8.9 48 13.23 0.521
21:03 1020 30.12 849 25.07 12.7 54.8 78 8.9 48.1 13.14 0.517
21:04 1020 30.12 849 25.07 12.6 54.6 78 8.9 48.1 13.01 0.512
21:05 1020 30.12 849 25.07 12.5 54.4 78 8.8 47.9 12.9 0.508
21:06 1020 30.12 849 25.07 12.5 54.4 78 8.7 47.6 12.89 0.507
21:07 1020 30.12 849 25.07 12.5 54.5 77 8.6 47.5 12.84 0.506
21:08 1020 30.12 849 25.07 12.4 54.4 76 8.4 47.2 12.82 0.505
21:09 1020 30.12 849 25.07 12.4 54.2 77 8.4 47.1 12.76 0.502
21:10 1020 30.12 849 25.07 12.3 54.2 76 8.3 46.9 12.66 0.498
21:11 1020 30.12 849 25.07 12.3 54.1 77 8.3 47 12.64 0.498
21:12 1020 30.12 849 25.07 12.2 53.9 77 8.3 46.9 12.53 0.493
21:13 1020 30.12 849 25.07 12.1 53.7 77 8.1 46.6 12.43 0.489
21:14 1020 30.12 849 25.07 12.1 53.7 76 8 46.4 12.4 0.488
21:15 1020 30.12 849 25.07 12.1 53.8 75 7.8 46 12.45 0.49
21:16 1020 30.12 849 25.07 12.2 54 74 7.7 45.9 12.54 0.494
21:17 1020 30.12 849 25.07 12.3 54.1 74 7.7 45.9 12.6 0.496
21:18 1020 30.12 849 25.07 12.3 54.2 73 7.6 45.6 12.65 0.498
21:19 1020 30.12 849 25.07 12.4 54.3 73 7.7 45.8 12.71 0.5
21:20 1020 30.12 849 25.07 12.4 54.3 73 7.7 45.8 12.73 0.501
21:21 1020 30.12 849 25.07 12.4 54.3 73 7.8 46 12.74 0.502
21:22 1020 30.12 849 25.07 12.4 54.3 73 7.7 45.9 12.73 0.501
21:23 1020 30.12 849 25.07 12.4 54.3 74 7.9 46.2 12.72 0.501
21:24 1020 30.12 849 25.07 12.3 54.1 75 7.9 46.3 12.63 0.497
21:25 1020 30.12 849 25.07 12.2 53.9 75 7.9 46.3 12.54 0.494
21:26 1020 30.12 849 25.07 12.1 53.7 76 8 46.3 12.46 0.491
21:27 1020 30.12 849 25.07 11.9 53.5 77 8 46.4 12.35 0.486
21:28 1020 30.12 849 25.07 11.8 53.2 77 8 46.4 12.19 0.48
21:29 1020 30.12 849 25.07 11.6 52.9 78 7.9 46.3 12.05 0.474
21:30 1020 30.12 849 25.07 11.5 52.7 78 7.9 46.2 11.92 0.469
21:31 1020 30.12 849 25.07 11.4 52.5 78 7.8 46.1 11.8 0.465
21:32 1020 30.12 849 25.07 11.4 52.4 78 7.8 46 11.75 0.463
21:33 1020 30.12 849 25.07 11.3 52.4 79 7.7 45.9 11.71 0.461
21:34 1020 30.12 849 25.07 11.3 52.4 78 7.8 46 11.7 0.461
21:35 1020 30.12 849 25.07 11.3 52.4 79 7.8 46 11.7 0.461
21:36 1020 30.12 849 25.07 11.3 52.3 79 7.8 46 11.64 0.458
21:37 1020 30.12 849 25.07 11.3 52.3 79 7.8 46 11.64 0.458
21:38 1020 30.12 849 25.07 11.3 52.3 79 7.8 46 11.66 0.459
21:39 1020 30.12 849 25.07 11.3 52.4 79 7.8 46.1 11.68 0.46
21:40 1020 30.12 849 25.07 11.3 52.4 79 7.8 46 11.69 0.46
21:41 1020 30.12 849 25.07 11.3 52.3 79 7.7 45.9 11.64 0.458
21:42 1020 30.12 849 25.07 11.3 52.3 79 7.7 45.9 11.65 0.459
21:43 1020 30.12 849 25.07 11.2 52.2 79 7.7 45.9 11.61 0.457
21:44 1020 30.12 849 25.07 11.2 52.1 79 7.7 45.9 11.56 0.455
21:45 1020 30.12 849 25.07 11.2 52.1 79 7.6 45.7 11.5 0.453
21:46 1020 30.12 849 25.07 11.1 51.9 78 7.4 45.3 11.44 0.45
21:47 1020 30.12 849 25.07 11.1 52.1 77 7.3 45.1 11.44 0.45
21:48 1020 30.12 849 25.07 11.3 52.4 76 7.2 45 11.59 0.456
21:49 1020 30.12 849 25.07 11.5 52.6 75 7.2 45 11.79 0.464
21:50 1020 30.12 849 25.07 11.7 53 75 7.3 45.2 11.9 0.469
21:51 1020 30.12 849 25.07 11.7 53 75 7.4 45.3 11.92 0.469
21:52 1020 30.12 849 25.07 11.6 52.8 75 7.3 45.2 11.89 0.468
21:53 1020 30.12 849 25.07 11.5 52.8 75 7.3 45.2 11.87 0.467
21:54 1020 30.12 849 25.07 11.6 52.8 75 7.3 45.1 11.88 0.468
21:55 1020 30.12 849 25.07 11.6 52.9 74 7.2 45 11.95 0.47
21:56 1020 30.12 849 25.07 11.8 53.2 74 7.2 45 12.06 0.475
21:57 1020 30.12 849 25.07 11.9 53.3 73 7.1 44.9 12.14 0.478
21:58 1020 30.12 849 25.07 11.9 53.5 73 7.2 44.9 12.2 0.48
21:59 1020 30.12 849 25.07 12 53.6 71 7 44.7 12.31 0.485
22:00 1020 30.12 849 25.07 12.2 53.9 71 7 44.7 12.42 0.489
22:01 1020 30.12 849 25.07 12.2 54 71 7.1 44.7 12.49 0.492
22:02 1020 30.12 849 25.07 12.3 54.1 71 7.1 44.8 12.53 0.493
22:03 1020 30.12 849 25.07 12.3 54.1 70 7.1 44.8 12.52 0.493
22:04 1020 30.12 849 25.07 12.3 54.1 71 7.1 44.9 12.54 0.494
22:05 1020 30.12 849 25.07 12.3 54.1 71 7.1 44.8 12.52 0.493
22:06 1020 30.12 849 25.07 12.2 54 70 7 44.6 12.51 0.493
22:07 1020 30.12 849 25.07 12.2 54 70 6.9 44.5 12.55 0.494
22:08 1020 30.12 849 25.07 12.3 54.1 70 7 44.6 12.56 0.494
22:09 1020 30.12 849 25.07 12.3 54.1 70 7 44.5 12.52 0.493
22:10 1020 30.12 849 25.07 12.2 54 70 6.9 44.4 12.51 0.493
22:11 1020 30.12 849 25.07 12.2 53.9 70 6.9 44.5 12.47 0.491
22:12 1020 30.12 849 25.07 12.1 53.8 70 6.9 44.4 12.43 0.489
22:13 1020 30.12 849 25.07 12.1 53.8 70 6.8 44.3 12.4 0.488
22:14 1020 30.12 849 25.07 12.1 53.7 70 6.8 44.2 12.38 0.487
22:15 1020 30.12 849 25.07 12 53.6 70 6.7 44 12.3 0.484
22:16 1020 30.12 849 25.07 12 53.6 69 6.6 43.9 12.3 0.484
22:17 1020 30.12 849 25.07 12 53.7 69 6.5 43.7 12.33 0.485
22:18 1020 30.12 849 25.07 12.1 53.8 68 6.4 43.5 12.39 0.488
22:19 1020 30.12 849 25.07 12.2 54 67 6.4 43.5 12.43 0.489
22:20 1020 30.12 849 25.07 12.3 54.2 66 6.3 43.3 12.54 0.494
22:21 1020 30.12 849 25.07 12.5 54.4 65 6.2 43.2 12.65 0.498
22:22 1020 30.12 849 25.07 12.7 54.8 64 6.2 43.1 12.87 0.507
22:23 1020 30.12 849 25.07 12.8 55.1 64 6.2 43.2 13 0.512
22:24 1020 30.12 849 25.07 12.9 55.2 64 6.3 43.3 13.07 0.515
22:25 1020 30.12 849 25.07 13 55.3 63 6.1 43 13.13 0.517
22:26 1020 30.12 849 25.07 13 55.5 62 6 42.8 13.24 0.521
22:27 1020 30.12 849 25.07 13.2 55.8 62 6.1 42.9 13.42 0.528
22:28 1020 30.12 849 25.07 13.3 56 62 6.3 43.3 13.5 0.531
22:29 1020 30.12 849 25.07 13.4 56.1 62 6.2 43.2 13.59 0.535
22:30 1020 30.12 849 25.07 13.5 56.2 62 6.3 43.4 13.64 0.537
22:31 1020 30.12 850 25.1 13.5 56.2 63 6.5 43.7 13.7 0.539
22:32 1020 30.12 849 25.07 13.4 56 64 6.6 43.9 13.62 0.536
22:33 1020 30.12 850 25.1 13.2 55.8 64 6.6 43.9 13.49 0.531
22:34 1020 30.12 850 25.1 13 55.5 65 6.7 44 13.37 0.526
22:35 1020 30.12 850 25.1 12.9 55.1 66 6.6 43.9 13.23 0.521
22:36 1020 30.12 850 25.1 12.7 54.9 66 6.5 43.7 13.08 0.515
22:37 1020 30.12 850 25.1 12.6 54.7 66 6.4 43.6 12.99 0.511
22:38 1020 30.12 850 25.1 12.6 54.6 65 6.3 43.3 12.91 0.508
22:39 1020 30.12 850 25.1 12.7 54.8 65 6.2 43.2 12.96 0.51
22:40 1020 30.12 850 25.1 12.7 54.9 65 6.3 43.3 12.99 0.511
22:41 1020 30.12 850 25.1 12.7 54.9 65 6.3 43.3 13.03 0.513
22:42 1020 30.12 850 25.1 12.6 54.7 66 6.5 43.6 12.93 0.509
22:43 1020 30.12 850 25.1 12.5 54.4 66 6.4 43.5 12.8 0.504
22:44 1020 30.12 850 25.1 12.3 54.2 65 6 42.7 12.62 0.497
22:45 1020 30.12 850 25.1 12.4 54.3 64 5.8 42.5 12.63 0.497
22:46 1020 30.12 850 25.1 12.4 54.3 65 6 42.8 12.65 0.498
22:47 1020 30.12 850 25.1 12.4 54.2 65 6.1 43 12.63 0.497
22:48 1020 30.12 850 25.1 12.2 54 66 6.1 42.9 12.55 0.494
22:49 1020 30.12 850 25.1 12.2 53.9 66 6 42.9 12.5 0.492
22:50 1020 30.12 850 25.1 12.2 53.9 67 6.2 43.1 12.49 0.492
22:51 1020 30.12 850 25.1 12.1 53.7 67 6.3 43.3 12.41 0.489
22:52 1020 30.12 850 25.1 12 53.5 68 6.4 43.5 12.31 0.485
22:53 1020 30.12 850 25.1 11.8 53.2 69 6.3 43.3 12.13 0.478
22:54 1020 30.12 850 25.1 11.7 53 69 6.2 43.2 12.04 0.474
22:55 1020 30.12 850 25.1 11.7 53 68 6 42.8 12.01 0.473
22:56 1020 30.12 850 25.1 11.8 53.2 65 5.6 42 12.08 0.476
22:57 1020 30.12 850 25.1 11.9 53.5 65 5.7 42.2 12.25 0.482
22:58 1020 30.12 850 25.1 12.1 53.7 65 5.8 42.4 12.33 0.485
22:59 1020 30.12 850 25.1 12.2 53.9 65 5.8 42.4 12.51 0.493
23:00 1020 30.12 850 25.1 12.3 54.2 65 5.9 42.6 12.57 0.495
23:01 1020 30.12 850 25.1 12.4 54.4 64 5.9 42.7 12.69 0.5
23:02 1020 30.12 850 25.1 12.4 54.4 65 6 42.9 12.72 0.501
23:03 1020 30.12 850 25.1 12.3 54.2 65 6 42.9 12.59 0.496
23:04 1020 30.12 850 25.1 12.3 54.2 65 6 42.8 12.6 0.496
23:05 1020 30.12 850 25.1 12.4 54.4 65 6.1 43 12.64 0.498
23:06 1020 30.12 850 25.1 12.4 54.4 65 6.1 43 12.69 0.5
23:07 1020 30.12 850 25.1 12.4 54.3 66 6.3 43.4 12.63 0.497
23:08 1020 30.12 850 25.1 12.2 54 67 6.3 43.4 12.52 0.493
23:09 1020 30.12 850 25.1 12.3 54.1 65 5.9 42.6 12.58 0.495
23:10 1020 30.12 850 25.1 12.6 54.7 64 5.9 42.7 12.83 0.505
23:11 1020 30.12 850 25.1 12.8 55 63 6.1 42.9 13.03 0.513
23:12 1020 30.12 850 25.1 12.8 55 64 6.3 43.3 13.04 0.513
23:13 1020 30.12 850 25.1 12.6 54.6 65 6.3 43.3 12.89 0.507
23:14 1020 30.12 850 25.1 12.4 54.3 66 6.2 43.2 12.72 0.501
23:15 1020 30.12 850 25.1 12.3 54.1 66 6.2 43.2 12.59 0.496
23:16 1020 30.12 850 25.1 12.2 54 66 6.2 43.1 12.56 0.494
23:17 1020 30.12 850 25.1 12.3 54.1 66 6.1 43 12.57 0.495
23:18 1020 30.12 850 25.1 12.3 54.1 66 6.1 43 12.59 0.496
23:19 1020 30.12 850 25.1 12.3 54.1 66 6.2 43.1 12.57 0.495
23:20 1020 30.12 850 25.1 12.2 54 66 6.1 43 12.51 0.493
23:21 1020 30.12 850 25.1 12.2 53.9 66 6 42.8 12.48 0.491
23:22 1020 30.12 850 25.1 12.2 53.9 66 5.9 42.7 12.46 0.491
23:23 1020 30.12 850 25.1 12.2 53.9 66 6 42.7 12.41 0.489
23:24 1020 30.12 850 25.1 12.1 53.7 66 6 42.8 12.37 0.487
23:25 1020 30.12 850 25.1 12 53.5 67 6 42.8 12.31 0.485
23:26 1020 30.12 850 25.1 11.9 53.4 67 6 42.9 12.21 0.481
23:27 1020 30.12 850 25.1 11.8 53.2 67 5.9 42.7 12.16 0.479
23:28 1020 30.12 850 25.1 11.8 53.3 67 5.9 42.6 12.16 0.479
23:29 1020 30.12 850 25.1 11.9 53.4 67 6 42.8 12.13 0.478
23:30 1020 30.12 850 25.1 11.9 53.4 68 6.2 43.1 12.19 0.48
23:31 1020 30.12 850 25.1 11.8 53.3 68 6.2 43.1 12.14 0.478
23:32 1020 30.12 850 25.1 11.7 53.1 69 6.2 43.2 12.1 0.476
23:33 1020 30.12 850 25.1 11.6 52.8 70 6.3 43.4 11.91 0.469
23:34 1020 30.12 850 25.1 11.4 52.5 71 6.2 43.2 11.73 0.462
23:35 1020 30.12 850 25.1 11.3 52.3 71 6.2 43.2 11.65 0.459
23:36 1020 30.12 850 25.1 11.2 52.2 71 6.2 43.1 11.59 0.456
23:37 1020 30.12 850 25.1 11.1 52 72 6.2 43.2 11.54 0.454
23:38 1020 30.12 850 25.1 11 51.8 73 6.3 43.3 11.37 0.448
23:39 1020 30.12 850 25.1 10.8 51.4 73 6.2 43.1 11.19 0.441
23:40 1020 30.12 850 25.1 10.8 51.4 73 6.1 43 11.14 0.439
23:41 1020 30.12 850 25.1 10.7 51.3 73 6.2 43.1 11.05 0.435
23:42 1020 30.12 850 25.1 10.6 51 74 6.2 43.1 10.93 0.43
23:43 1020 30.12 850 25.1 10.5 50.8 75 6.2 43.1 10.84 0.427
23:44 1020 30.12 850 25.1 10.3 50.5 75 6.1 43 10.72 0.422
23:45 1020 30.12 850 25.1 10.3 50.5 75 6 42.8 10.61 0.418
23:46 1020 30.12 850 25.1 10.3 50.6 75 6.1 42.9 10.64 0.419
23:47 1020 30.12 850 25.1 10.4 50.7 75 6.1 43 10.7 0.421
23:48 1020 30.12 850 25.1 10.4 50.7 74 6 42.9 10.68 0.42
23:49 1020 30.12 850 25.1 10.5 50.9 73 5.9 42.6 10.78 0.424
23:50 1020 30.12 850 25.1 10.7 51.3 71 5.7 42.3 10.9 0.429
23:51 1020 30.12 850 25.1 11 51.8 69 5.6 42 11.18 0.44
23:52 1020 30.12 850 25.1 11.4 52.5 68 5.8 42.4 11.48 0.452
23:53 1020 30.12 850 25.1 11.5 52.8 68 5.8 42.5 11.7 0.461
23:54 1020 30.12 850 25.1 11.7 53 67 5.9 42.6 11.83 0.466
23:55 1020 30.12 850 25.1 11.7 53 68 5.9 42.7 11.91 0.469
23:56 1020 30.12 850 25.1 11.6 52.9 68 6 42.8 11.9 0.469
23:57 1020 30.12 850 25.1 11.5 52.8 69 6.1 42.9 11.81 0.465
23:58 1020 30.12 850 25.1 11.5 52.6 69 6 42.8 11.76 0.463
23:59 1020 30.12 850 25.1 11.4 52.5 69 6 42.7 11.71 0.461
24:00 1020 30.12 850 25.1 11.3 52.4 70 6.1 43 11.64 0.458